<?xml version="1.0" encoding="UTF-8" standalone="no" ?>
<gpx xmlns="http://www.topografix.com/GPX/1/1" xmlns:xsi="http://www.w3.org/2001/XMLSchema-instance" xsi:schemaLocation="http://www.topografix.com/GPX/1/1 http://www.topografix.com/GPX/1/1/gpx.xsd" version="1.1" creator="VisuGPX - https://www.visugpx.com">
  <metadata>
    <name>RSPFY-Chevreuse-Milon</name>
    <desc><![CDATA[boucle depuis Chevreuse passant par le bois du Claireau, Champfailly, Milon-La-Chapelle, la traversée de la plaine de la Madeleine et le château de la Madeleine.]]></desc>
  </metadata>
  <trk>
    <name><![CDATA[2024-11-14 08:58]]></name>
    <desc><![CDATA[<p>Heure de départ: 08:58 14 nov. 2024<br/>Heure d'arrivée: 11:42 14 nov. 2024<br/>Distance: 10,8 km (02:44)<br/>Temps déplacement: 02:10<br/>Vitesse moyenne: 3,94 km/h<br/>Vitesse moyenne mouv.: 4,96 km/h<br/>Vitesse Max.: 9,1 km/h<br/>Altitude minimale: 64 m<br/>Altitude maximale: 164 m<br/>Vitesse de montée: 246,9 m/h<br/>Vitesse de descente: -253,6 m/h<br/>Gain d'altitude: 339 m<br/>Perte d'altitude: -336 m<br/>Temps de montée: 01:22<br/>Temps de descente: 01:19<br/></p><hr align="center" width="480" style="height: 2px; width: 517px"/>]]></desc>
    <trkseg>
      <trkpt lat="48.70591" lon="2.04154">
        <ele>78.1</ele>
        <time>2024-11-14T07:58:32Z</time>
      </trkpt>
      <trkpt lat="48.70597" lon="2.04168">
        <ele>78</ele>
        <time>2024-11-14T07:59:40Z</time>
      </trkpt>
      <trkpt lat="48.70601" lon="2.04181">
        <ele>78</ele>
        <time>2024-11-14T07:59:47Z</time>
      </trkpt>
      <trkpt lat="48.70601" lon="2.04195">
        <ele>78</ele>
        <time>2024-11-14T07:59:56Z</time>
      </trkpt>
      <trkpt lat="48.70599" lon="2.0421">
        <ele>77.8</ele>
        <time>2024-11-14T08:00:05Z</time>
      </trkpt>
      <trkpt lat="48.70598" lon="2.04225">
        <ele>77.6</ele>
        <time>2024-11-14T08:00:14Z</time>
      </trkpt>
      <trkpt lat="48.70598" lon="2.0424">
        <ele>77.8</ele>
        <time>2024-11-14T08:00:22Z</time>
      </trkpt>
      <trkpt lat="48.70601" lon="2.04255">
        <ele>78.1</ele>
        <time>2024-11-14T08:00:30Z</time>
      </trkpt>
      <trkpt lat="48.70604" lon="2.04269">
        <ele>78.2</ele>
        <time>2024-11-14T08:00:36Z</time>
      </trkpt>
      <trkpt lat="48.70606" lon="2.04285">
        <ele>78.2</ele>
        <time>2024-11-14T08:00:42Z</time>
      </trkpt>
      <trkpt lat="48.70607" lon="2.043">
        <ele>78.1</ele>
        <time>2024-11-14T08:00:48Z</time>
      </trkpt>
      <trkpt lat="48.70611" lon="2.04313">
        <ele>78</ele>
        <time>2024-11-14T08:00:55Z</time>
      </trkpt>
      <trkpt lat="48.70613" lon="2.04327">
        <ele>78</ele>
        <time>2024-11-14T08:01:02Z</time>
      </trkpt>
      <trkpt lat="48.70616" lon="2.04341">
        <ele>77.8</ele>
        <time>2024-11-14T08:01:10Z</time>
      </trkpt>
      <trkpt lat="48.70619" lon="2.04354">
        <ele>77.5</ele>
        <time>2024-11-14T08:01:17Z</time>
      </trkpt>
      <trkpt lat="48.70623" lon="2.04367">
        <ele>77.6</ele>
        <time>2024-11-14T08:01:23Z</time>
      </trkpt>
      <trkpt lat="48.70626" lon="2.04382">
        <ele>77.9</ele>
        <time>2024-11-14T08:01:30Z</time>
      </trkpt>
      <trkpt lat="48.70629" lon="2.04396">
        <ele>78</ele>
        <time>2024-11-14T08:01:38Z</time>
      </trkpt>
      <trkpt lat="48.70635" lon="2.04408">
        <ele>78</ele>
        <time>2024-11-14T08:01:45Z</time>
      </trkpt>
      <trkpt lat="48.70644" lon="2.04413">
        <ele>78</ele>
        <time>2024-11-14T08:01:55Z</time>
      </trkpt>
      <trkpt lat="48.70654" lon="2.04415">
        <ele>78</ele>
        <time>2024-11-14T08:02:03Z</time>
      </trkpt>
      <trkpt lat="48.70657" lon="2.04428">
        <ele>77.9</ele>
        <time>2024-11-14T08:02:16Z</time>
      </trkpt>
      <trkpt lat="48.7066" lon="2.04442">
        <ele>77.8</ele>
        <time>2024-11-14T08:02:25Z</time>
      </trkpt>
      <trkpt lat="48.70662" lon="2.04455">
        <ele>78.2</ele>
        <time>2024-11-14T08:02:37Z</time>
      </trkpt>
      <trkpt lat="48.70666" lon="2.04469">
        <ele>78.9</ele>
        <time>2024-11-14T08:02:45Z</time>
      </trkpt>
      <trkpt lat="48.70669" lon="2.04484">
        <ele>78.9</ele>
        <time>2024-11-14T08:02:52Z</time>
      </trkpt>
      <trkpt lat="48.70668" lon="2.04499">
        <ele>79</ele>
        <time>2024-11-14T08:02:59Z</time>
      </trkpt>
      <trkpt lat="48.70667" lon="2.04514">
        <ele>79</ele>
        <time>2024-11-14T08:03:06Z</time>
      </trkpt>
      <trkpt lat="48.70666" lon="2.0453">
        <ele>78.9</ele>
        <time>2024-11-14T08:03:13Z</time>
      </trkpt>
      <trkpt lat="48.70666" lon="2.04544">
        <ele>78.4</ele>
        <time>2024-11-14T08:03:20Z</time>
      </trkpt>
      <trkpt lat="48.70662" lon="2.04557">
        <ele>78.1</ele>
        <time>2024-11-14T08:03:26Z</time>
      </trkpt>
      <trkpt lat="48.70662" lon="2.04573">
        <ele>79.1</ele>
        <time>2024-11-14T08:03:33Z</time>
      </trkpt>
      <trkpt lat="48.70661" lon="2.04587">
        <ele>79.8</ele>
        <time>2024-11-14T08:03:39Z</time>
      </trkpt>
      <trkpt lat="48.70659" lon="2.04602">
        <ele>79.5</ele>
        <time>2024-11-14T08:03:45Z</time>
      </trkpt>
      <trkpt lat="48.70657" lon="2.04617">
        <ele>79.3</ele>
        <time>2024-11-14T08:03:51Z</time>
      </trkpt>
      <trkpt lat="48.70656" lon="2.0463">
        <ele>79.1</ele>
        <time>2024-11-14T08:03:57Z</time>
      </trkpt>
      <trkpt lat="48.70651" lon="2.04643">
        <ele>79</ele>
        <time>2024-11-14T08:04:03Z</time>
      </trkpt>
      <trkpt lat="48.70649" lon="2.04658">
        <ele>79</ele>
        <time>2024-11-14T08:04:09Z</time>
      </trkpt>
      <trkpt lat="48.70648" lon="2.04673">
        <ele>79</ele>
        <time>2024-11-14T08:04:15Z</time>
      </trkpt>
      <trkpt lat="48.70647" lon="2.04687">
        <ele>79</ele>
        <time>2024-11-14T08:04:20Z</time>
      </trkpt>
      <trkpt lat="48.70643" lon="2.047">
        <ele>79</ele>
        <time>2024-11-14T08:04:33Z</time>
      </trkpt>
      <trkpt lat="48.70646" lon="2.04715">
        <ele>79</ele>
        <time>2024-11-14T08:04:39Z</time>
      </trkpt>
      <trkpt lat="48.7065" lon="2.04728">
        <ele>78.9</ele>
        <time>2024-11-14T08:04:45Z</time>
      </trkpt>
      <trkpt lat="48.70653" lon="2.04743">
        <ele>78.6</ele>
        <time>2024-11-14T08:04:52Z</time>
      </trkpt>
      <trkpt lat="48.70655" lon="2.04758">
        <ele>78.6</ele>
        <time>2024-11-14T08:04:58Z</time>
      </trkpt>
      <trkpt lat="48.70656" lon="2.04772">
        <ele>78.6</ele>
        <time>2024-11-14T08:05:04Z</time>
      </trkpt>
      <trkpt lat="48.70657" lon="2.04787">
        <ele>78.7</ele>
        <time>2024-11-14T08:05:11Z</time>
      </trkpt>
      <trkpt lat="48.70657" lon="2.04802">
        <ele>78.7</ele>
        <time>2024-11-14T08:05:30Z</time>
      </trkpt>
      <trkpt lat="48.70657" lon="2.04817">
        <ele>78.7</ele>
        <time>2024-11-14T08:05:38Z</time>
      </trkpt>
      <trkpt lat="48.70655" lon="2.04831">
        <ele>78.6</ele>
        <time>2024-11-14T08:05:44Z</time>
      </trkpt>
      <trkpt lat="48.70651" lon="2.04845">
        <ele>78.6</ele>
        <time>2024-11-14T08:05:51Z</time>
      </trkpt>
      <trkpt lat="48.70648" lon="2.04859">
        <ele>78.6</ele>
        <time>2024-11-14T08:05:58Z</time>
      </trkpt>
      <trkpt lat="48.70646" lon="2.04874">
        <ele>78.4</ele>
        <time>2024-11-14T08:06:06Z</time>
      </trkpt>
      <trkpt lat="48.70643" lon="2.04889">
        <ele>78.2</ele>
        <time>2024-11-14T08:06:12Z</time>
      </trkpt>
      <trkpt lat="48.7064" lon="2.04903">
        <ele>77.6</ele>
        <time>2024-11-14T08:06:17Z</time>
      </trkpt>
      <trkpt lat="48.70639" lon="2.04918">
        <ele>77</ele>
        <time>2024-11-14T08:06:22Z</time>
      </trkpt>
      <trkpt lat="48.70636" lon="2.04931">
        <ele>77</ele>
        <time>2024-11-14T08:06:33Z</time>
      </trkpt>
      <trkpt lat="48.70636" lon="2.04945">
        <ele>77</ele>
        <time>2024-11-14T08:06:42Z</time>
      </trkpt>
      <trkpt lat="48.70637" lon="2.0496">
        <ele>76.5</ele>
        <time>2024-11-14T08:06:51Z</time>
      </trkpt>
      <trkpt lat="48.70635" lon="2.04974">
        <ele>76.3</ele>
        <time>2024-11-14T08:06:59Z</time>
      </trkpt>
      <trkpt lat="48.70631" lon="2.04987">
        <ele>77</ele>
        <time>2024-11-14T08:07:07Z</time>
      </trkpt>
      <trkpt lat="48.70629" lon="2.05">
        <ele>77.6</ele>
        <time>2024-11-14T08:07:15Z</time>
      </trkpt>
      <trkpt lat="48.70625" lon="2.05014">
        <ele>77.5</ele>
        <time>2024-11-14T08:07:21Z</time>
      </trkpt>
      <trkpt lat="48.70622" lon="2.05029">
        <ele>77.4</ele>
        <time>2024-11-14T08:07:28Z</time>
      </trkpt>
      <trkpt lat="48.70618" lon="2.05041">
        <ele>77.4</ele>
        <time>2024-11-14T08:07:34Z</time>
      </trkpt>
      <trkpt lat="48.70616" lon="2.05055">
        <ele>77.3</ele>
        <time>2024-11-14T08:07:42Z</time>
      </trkpt>
      <trkpt lat="48.70612" lon="2.05068">
        <ele>77</ele>
        <time>2024-11-14T08:07:49Z</time>
      </trkpt>
      <trkpt lat="48.70608" lon="2.05082">
        <ele>77</ele>
        <time>2024-11-14T08:07:57Z</time>
      </trkpt>
      <trkpt lat="48.70608" lon="2.05096">
        <ele>77</ele>
        <time>2024-11-14T08:08:02Z</time>
      </trkpt>
      <trkpt lat="48.70607" lon="2.05111">
        <ele>77</ele>
        <time>2024-11-14T08:08:07Z</time>
      </trkpt>
      <trkpt lat="48.70607" lon="2.05125">
        <ele>77</ele>
        <time>2024-11-14T08:08:12Z</time>
      </trkpt>
      <trkpt lat="48.70605" lon="2.0514">
        <ele>77</ele>
        <time>2024-11-14T08:08:17Z</time>
      </trkpt>
      <trkpt lat="48.70598" lon="2.0515">
        <ele>77</ele>
        <time>2024-11-14T08:08:23Z</time>
      </trkpt>
      <trkpt lat="48.70589" lon="2.05155">
        <ele>76.6</ele>
        <time>2024-11-14T08:08:30Z</time>
      </trkpt>
      <trkpt lat="48.7058" lon="2.05156">
        <ele>76.3</ele>
        <time>2024-11-14T08:08:37Z</time>
      </trkpt>
      <trkpt lat="48.70571" lon="2.05162">
        <ele>76.1</ele>
        <time>2024-11-14T08:08:44Z</time>
      </trkpt>
      <trkpt lat="48.70564" lon="2.05174">
        <ele>76.2</ele>
        <time>2024-11-14T08:08:50Z</time>
      </trkpt>
      <trkpt lat="48.70563" lon="2.05189">
        <ele>76.5</ele>
        <time>2024-11-14T08:08:59Z</time>
      </trkpt>
      <trkpt lat="48.70568" lon="2.05202">
        <ele>77</ele>
        <time>2024-11-14T08:09:07Z</time>
      </trkpt>
      <trkpt lat="48.70559" lon="2.0521">
        <ele>76.8</ele>
        <time>2024-11-14T08:09:18Z</time>
      </trkpt>
      <trkpt lat="48.7055" lon="2.05212">
        <ele>76.3</ele>
        <time>2024-11-14T08:09:37Z</time>
      </trkpt>
      <trkpt lat="48.70544" lon="2.05222">
        <ele>76.1</ele>
        <time>2024-11-14T08:09:44Z</time>
      </trkpt>
      <trkpt lat="48.70538" lon="2.05235">
        <ele>75.5</ele>
        <time>2024-11-14T08:09:52Z</time>
      </trkpt>
      <trkpt lat="48.70532" lon="2.05246">
        <ele>74.6</ele>
        <time>2024-11-14T08:09:58Z</time>
      </trkpt>
      <trkpt lat="48.70525" lon="2.05256">
        <ele>74.5</ele>
        <time>2024-11-14T08:10:06Z</time>
      </trkpt>
      <trkpt lat="48.70522" lon="2.05269">
        <ele>75.3</ele>
        <time>2024-11-14T08:10:13Z</time>
      </trkpt>
      <trkpt lat="48.70522" lon="2.05283">
        <ele>75.8</ele>
        <time>2024-11-14T08:10:20Z</time>
      </trkpt>
      <trkpt lat="48.7052" lon="2.05298">
        <ele>75.7</ele>
        <time>2024-11-14T08:10:27Z</time>
      </trkpt>
      <trkpt lat="48.70516" lon="2.05313">
        <ele>75.6</ele>
        <time>2024-11-14T08:10:34Z</time>
      </trkpt>
      <trkpt lat="48.70513" lon="2.05326">
        <ele>75.4</ele>
        <time>2024-11-14T08:10:40Z</time>
      </trkpt>
      <trkpt lat="48.70508" lon="2.05338">
        <ele>75.1</ele>
        <time>2024-11-14T08:10:45Z</time>
      </trkpt>
      <trkpt lat="48.70502" lon="2.05349">
        <ele>75.3</ele>
        <time>2024-11-14T08:10:52Z</time>
      </trkpt>
      <trkpt lat="48.70496" lon="2.05361">
        <ele>75.8</ele>
        <time>2024-11-14T08:10:58Z</time>
      </trkpt>
      <trkpt lat="48.7049" lon="2.05372">
        <ele>75.8</ele>
        <time>2024-11-14T08:11:04Z</time>
      </trkpt>
      <trkpt lat="48.70484" lon="2.05382">
        <ele>75.3</ele>
        <time>2024-11-14T08:11:12Z</time>
      </trkpt>
      <trkpt lat="48.70478" lon="2.05394">
        <ele>74.8</ele>
        <time>2024-11-14T08:11:20Z</time>
      </trkpt>
      <trkpt lat="48.70472" lon="2.05407">
        <ele>74.6</ele>
        <time>2024-11-14T08:11:27Z</time>
      </trkpt>
      <trkpt lat="48.70467" lon="2.05421">
        <ele>75.2</ele>
        <time>2024-11-14T08:11:34Z</time>
      </trkpt>
      <trkpt lat="48.70461" lon="2.05433">
        <ele>75.7</ele>
        <time>2024-11-14T08:11:41Z</time>
      </trkpt>
      <trkpt lat="48.70458" lon="2.05446">
        <ele>75.9</ele>
        <time>2024-11-14T08:11:47Z</time>
      </trkpt>
      <trkpt lat="48.70453" lon="2.05459">
        <ele>75.1</ele>
        <time>2024-11-14T08:11:54Z</time>
      </trkpt>
      <trkpt lat="48.70448" lon="2.05471">
        <ele>74.3</ele>
        <time>2024-11-14T08:12:01Z</time>
      </trkpt>
      <trkpt lat="48.70443" lon="2.05484">
        <ele>74.8</ele>
        <time>2024-11-14T08:12:09Z</time>
      </trkpt>
      <trkpt lat="48.70441" lon="2.05498">
        <ele>75.8</ele>
        <time>2024-11-14T08:12:16Z</time>
      </trkpt>
      <trkpt lat="48.70437" lon="2.0551">
        <ele>75.7</ele>
        <time>2024-11-14T08:12:25Z</time>
      </trkpt>
      <trkpt lat="48.70432" lon="2.05522">
        <ele>75.6</ele>
        <time>2024-11-14T08:12:32Z</time>
      </trkpt>
      <trkpt lat="48.7043" lon="2.05535">
        <ele>75.3</ele>
        <time>2024-11-14T08:12:40Z</time>
      </trkpt>
      <trkpt lat="48.70435" lon="2.05547">
        <ele>75.4</ele>
        <time>2024-11-14T08:13:02Z</time>
      </trkpt>
      <trkpt lat="48.70442" lon="2.05558">
        <ele>75.9</ele>
        <time>2024-11-14T08:13:15Z</time>
      </trkpt>
      <trkpt lat="48.70451" lon="2.05558">
        <ele>76.3</ele>
        <time>2024-11-14T08:13:22Z</time>
      </trkpt>
      <trkpt lat="48.7046" lon="2.05557">
        <ele>76.6</ele>
        <time>2024-11-14T08:13:30Z</time>
      </trkpt>
      <trkpt lat="48.7047" lon="2.05557">
        <ele>76.9</ele>
        <time>2024-11-14T08:13:38Z</time>
      </trkpt>
      <trkpt lat="48.70479" lon="2.05554">
        <ele>77.4</ele>
        <time>2024-11-14T08:13:46Z</time>
      </trkpt>
      <trkpt lat="48.70489" lon="2.05557">
        <ele>78.2</ele>
        <time>2024-11-14T08:13:54Z</time>
      </trkpt>
      <trkpt lat="48.70498" lon="2.0556">
        <ele>79</ele>
        <time>2024-11-14T08:14:03Z</time>
      </trkpt>
      <trkpt lat="48.70507" lon="2.05567">
        <ele>80.2</ele>
        <time>2024-11-14T08:14:11Z</time>
      </trkpt>
      <trkpt lat="48.70516" lon="2.05573">
        <ele>81.3</ele>
        <time>2024-11-14T08:14:18Z</time>
      </trkpt>
      <trkpt lat="48.70524" lon="2.05579">
        <ele>82.5</ele>
        <time>2024-11-14T08:14:24Z</time>
      </trkpt>
      <trkpt lat="48.70533" lon="2.05584">
        <ele>83.4</ele>
        <time>2024-11-14T08:14:31Z</time>
      </trkpt>
      <trkpt lat="48.70542" lon="2.05588">
        <ele>84.1</ele>
        <time>2024-11-14T08:14:39Z</time>
      </trkpt>
      <trkpt lat="48.70551" lon="2.05592">
        <ele>84.7</ele>
        <time>2024-11-14T08:14:46Z</time>
      </trkpt>
      <trkpt lat="48.7056" lon="2.05593">
        <ele>85.3</ele>
        <time>2024-11-14T08:14:54Z</time>
      </trkpt>
      <trkpt lat="48.70571" lon="2.05596">
        <ele>86.1</ele>
        <time>2024-11-14T08:15:01Z</time>
      </trkpt>
      <trkpt lat="48.70579" lon="2.05601">
        <ele>86.7</ele>
        <time>2024-11-14T08:15:08Z</time>
      </trkpt>
      <trkpt lat="48.70589" lon="2.05606">
        <ele>87.5</ele>
        <time>2024-11-14T08:15:16Z</time>
      </trkpt>
      <trkpt lat="48.70598" lon="2.05609">
        <ele>88.5</ele>
        <time>2024-11-14T08:15:24Z</time>
      </trkpt>
      <trkpt lat="48.70607" lon="2.05613">
        <ele>89.6</ele>
        <time>2024-11-14T08:15:32Z</time>
      </trkpt>
      <trkpt lat="48.70615" lon="2.05618">
        <ele>90.3</ele>
        <time>2024-11-14T08:15:39Z</time>
      </trkpt>
      <trkpt lat="48.70624" lon="2.05623">
        <ele>91.2</ele>
        <time>2024-11-14T08:15:50Z</time>
      </trkpt>
      <trkpt lat="48.70632" lon="2.05633">
        <ele>92.1</ele>
        <time>2024-11-14T08:15:57Z</time>
      </trkpt>
      <trkpt lat="48.70635" lon="2.05647">
        <ele>92.8</ele>
        <time>2024-11-14T08:16:04Z</time>
      </trkpt>
      <trkpt lat="48.70635" lon="2.05661">
        <ele>93.2</ele>
        <time>2024-11-14T08:16:10Z</time>
      </trkpt>
      <trkpt lat="48.70635" lon="2.05676">
        <ele>93.8</ele>
        <time>2024-11-14T08:16:17Z</time>
      </trkpt>
      <trkpt lat="48.70634" lon="2.0569">
        <ele>94</ele>
        <time>2024-11-14T08:16:23Z</time>
      </trkpt>
      <trkpt lat="48.70633" lon="2.05705">
        <ele>94</ele>
        <time>2024-11-14T08:16:30Z</time>
      </trkpt>
      <trkpt lat="48.70632" lon="2.0572">
        <ele>94</ele>
        <time>2024-11-14T08:16:37Z</time>
      </trkpt>
      <trkpt lat="48.70632" lon="2.05735">
        <ele>94.5</ele>
        <time>2024-11-14T08:16:44Z</time>
      </trkpt>
      <trkpt lat="48.70631" lon="2.0575">
        <ele>94.8</ele>
        <time>2024-11-14T08:16:51Z</time>
      </trkpt>
      <trkpt lat="48.7063" lon="2.05766">
        <ele>94.7</ele>
        <time>2024-11-14T08:16:58Z</time>
      </trkpt>
      <trkpt lat="48.7063" lon="2.05782">
        <ele>94.8</ele>
        <time>2024-11-14T08:17:06Z</time>
      </trkpt>
      <trkpt lat="48.70628" lon="2.05796">
        <ele>94.7</ele>
        <time>2024-11-14T08:17:12Z</time>
      </trkpt>
      <trkpt lat="48.70626" lon="2.0581">
        <ele>94.6</ele>
        <time>2024-11-14T08:17:19Z</time>
      </trkpt>
      <trkpt lat="48.70627" lon="2.05825">
        <ele>94.7</ele>
        <time>2024-11-14T08:17:27Z</time>
      </trkpt>
      <trkpt lat="48.70625" lon="2.05839">
        <ele>94.5</ele>
        <time>2024-11-14T08:17:33Z</time>
      </trkpt>
      <trkpt lat="48.70624" lon="2.05854">
        <ele>94.4</ele>
        <time>2024-11-14T08:17:39Z</time>
      </trkpt>
      <trkpt lat="48.70627" lon="2.05867">
        <ele>94.6</ele>
        <time>2024-11-14T08:17:59Z</time>
      </trkpt>
      <trkpt lat="48.7063" lon="2.0588">
        <ele>94.8</ele>
        <time>2024-11-14T08:18:07Z</time>
      </trkpt>
      <trkpt lat="48.70634" lon="2.05894">
        <ele>95.3</ele>
        <time>2024-11-14T08:18:14Z</time>
      </trkpt>
      <trkpt lat="48.70641" lon="2.05904">
        <ele>96.5</ele>
        <time>2024-11-14T08:18:21Z</time>
      </trkpt>
      <trkpt lat="48.70644" lon="2.05918">
        <ele>97.2</ele>
        <time>2024-11-14T08:18:28Z</time>
      </trkpt>
      <trkpt lat="48.70644" lon="2.05932">
        <ele>97.3</ele>
        <time>2024-11-14T08:18:36Z</time>
      </trkpt>
      <trkpt lat="48.70654" lon="2.05932">
        <ele>99.4</ele>
        <time>2024-11-14T08:18:51Z</time>
      </trkpt>
      <trkpt lat="48.70662" lon="2.05936">
        <ele>101.4</ele>
        <time>2024-11-14T08:19:01Z</time>
      </trkpt>
      <trkpt lat="48.70667" lon="2.05947">
        <ele>102.1</ele>
        <time>2024-11-14T08:19:13Z</time>
      </trkpt>
      <trkpt lat="48.70673" lon="2.05959">
        <ele>103.4</ele>
        <time>2024-11-14T08:19:26Z</time>
      </trkpt>
      <trkpt lat="48.70683" lon="2.05964">
        <ele>105.7</ele>
        <time>2024-11-14T08:19:39Z</time>
      </trkpt>
      <trkpt lat="48.70691" lon="2.0597">
        <ele>107.5</ele>
        <time>2024-11-14T08:19:50Z</time>
      </trkpt>
      <trkpt lat="48.70697" lon="2.05982">
        <ele>107.6</ele>
        <time>2024-11-14T08:20:01Z</time>
      </trkpt>
      <trkpt lat="48.707" lon="2.05995">
        <ele>107.2</ele>
        <time>2024-11-14T08:20:09Z</time>
      </trkpt>
      <trkpt lat="48.70709" lon="2.06002">
        <ele>108.9</ele>
        <time>2024-11-14T08:20:17Z</time>
      </trkpt>
      <trkpt lat="48.70718" lon="2.06">
        <ele>111.8</ele>
        <time>2024-11-14T08:20:24Z</time>
      </trkpt>
      <trkpt lat="48.70728" lon="2.05996">
        <ele>115.1</ele>
        <time>2024-11-14T08:20:33Z</time>
      </trkpt>
      <trkpt lat="48.70737" lon="2.05996">
        <ele>118</ele>
        <time>2024-11-14T08:20:43Z</time>
      </trkpt>
      <trkpt lat="48.70747" lon="2.05996">
        <ele>120.9</ele>
        <time>2024-11-14T08:20:56Z</time>
      </trkpt>
      <trkpt lat="48.70756" lon="2.05998">
        <ele>122.8</ele>
        <time>2024-11-14T08:21:08Z</time>
      </trkpt>
      <trkpt lat="48.70765" lon="2.05994">
        <ele>126.2</ele>
        <time>2024-11-14T08:21:20Z</time>
      </trkpt>
      <trkpt lat="48.70772" lon="2.06003">
        <ele>125.7</ele>
        <time>2024-11-14T08:21:37Z</time>
      </trkpt>
      <trkpt lat="48.70768" lon="2.06015">
        <ele>121.5</ele>
        <time>2024-11-14T08:22:44Z</time>
      </trkpt>
      <trkpt lat="48.70774" lon="2.06024">
        <ele>120.3</ele>
        <time>2024-11-14T08:22:53Z</time>
      </trkpt>
      <trkpt lat="48.70784" lon="2.06028">
        <ele>120.7</ele>
        <time>2024-11-14T08:22:59Z</time>
      </trkpt>
      <trkpt lat="48.70793" lon="2.06034">
        <ele>120.1</ele>
        <time>2024-11-14T08:23:09Z</time>
      </trkpt>
      <trkpt lat="48.70801" lon="2.0604">
        <ele>119.1</ele>
        <time>2024-11-14T08:23:16Z</time>
      </trkpt>
      <trkpt lat="48.70809" lon="2.06051">
        <ele>116.7</ele>
        <time>2024-11-14T08:23:24Z</time>
      </trkpt>
      <trkpt lat="48.70818" lon="2.06057">
        <ele>116.2</ele>
        <time>2024-11-14T08:23:31Z</time>
      </trkpt>
      <trkpt lat="48.70825" lon="2.06066">
        <ele>115.6</ele>
        <time>2024-11-14T08:23:52Z</time>
      </trkpt>
      <trkpt lat="48.70836" lon="2.06069">
        <ele>116.5</ele>
        <time>2024-11-14T08:23:58Z</time>
      </trkpt>
      <trkpt lat="48.70844" lon="2.06078">
        <ele>116.9</ele>
        <time>2024-11-14T08:24:11Z</time>
      </trkpt>
      <trkpt lat="48.70853" lon="2.0608">
        <ele>118.6</ele>
        <time>2024-11-14T08:24:16Z</time>
      </trkpt>
      <trkpt lat="48.70863" lon="2.06082">
        <ele>120.3</ele>
        <time>2024-11-14T08:24:21Z</time>
      </trkpt>
      <trkpt lat="48.70871" lon="2.06087">
        <ele>121.4</ele>
        <time>2024-11-14T08:24:26Z</time>
      </trkpt>
      <trkpt lat="48.7088" lon="2.0609">
        <ele>122.4</ele>
        <time>2024-11-14T08:24:31Z</time>
      </trkpt>
      <trkpt lat="48.70888" lon="2.06099">
        <ele>122.8</ele>
        <time>2024-11-14T08:24:37Z</time>
      </trkpt>
      <trkpt lat="48.70898" lon="2.06102">
        <ele>122.6</ele>
        <time>2024-11-14T08:24:48Z</time>
      </trkpt>
      <trkpt lat="48.70907" lon="2.06097">
        <ele>123</ele>
        <time>2024-11-14T08:24:53Z</time>
      </trkpt>
      <trkpt lat="48.70915" lon="2.06092">
        <ele>123.4</ele>
        <time>2024-11-14T08:24:58Z</time>
      </trkpt>
      <trkpt lat="48.70924" lon="2.06089">
        <ele>122.8</ele>
        <time>2024-11-14T08:25:04Z</time>
      </trkpt>
      <trkpt lat="48.70933" lon="2.0608">
        <ele>122.5</ele>
        <time>2024-11-14T08:25:10Z</time>
      </trkpt>
      <trkpt lat="48.70941" lon="2.06073">
        <ele>122.4</ele>
        <time>2024-11-14T08:25:15Z</time>
      </trkpt>
      <trkpt lat="48.7095" lon="2.06067">
        <ele>122.4</ele>
        <time>2024-11-14T08:25:20Z</time>
      </trkpt>
      <trkpt lat="48.7096" lon="2.06064">
        <ele>122</ele>
        <time>2024-11-14T08:25:25Z</time>
      </trkpt>
      <trkpt lat="48.70969" lon="2.06062">
        <ele>121.5</ele>
        <time>2024-11-14T08:25:33Z</time>
      </trkpt>
      <trkpt lat="48.70979" lon="2.06063">
        <ele>120.2</ele>
        <time>2024-11-14T08:25:41Z</time>
      </trkpt>
      <trkpt lat="48.70988" lon="2.06066">
        <ele>118.3</ele>
        <time>2024-11-14T08:25:48Z</time>
      </trkpt>
      <trkpt lat="48.70997" lon="2.06068">
        <ele>116.6</ele>
        <time>2024-11-14T08:25:57Z</time>
      </trkpt>
      <trkpt lat="48.71007" lon="2.0607">
        <ele>115</ele>
        <time>2024-11-14T08:26:04Z</time>
      </trkpt>
      <trkpt lat="48.71017" lon="2.06072">
        <ele>113.4</ele>
        <time>2024-11-14T08:26:10Z</time>
      </trkpt>
      <trkpt lat="48.71027" lon="2.06075">
        <ele>111.6</ele>
        <time>2024-11-14T08:26:16Z</time>
      </trkpt>
      <trkpt lat="48.71036" lon="2.06082">
        <ele>110</ele>
        <time>2024-11-14T08:26:29Z</time>
      </trkpt>
      <trkpt lat="48.71045" lon="2.06087">
        <ele>109.1</ele>
        <time>2024-11-14T08:26:38Z</time>
      </trkpt>
      <trkpt lat="48.71055" lon="2.06091">
        <ele>108.5</ele>
        <time>2024-11-14T08:26:45Z</time>
      </trkpt>
      <trkpt lat="48.71062" lon="2.06099">
        <ele>107.4</ele>
        <time>2024-11-14T08:26:51Z</time>
      </trkpt>
      <trkpt lat="48.71071" lon="2.06105">
        <ele>106.3</ele>
        <time>2024-11-14T08:26:58Z</time>
      </trkpt>
      <trkpt lat="48.71081" lon="2.06107">
        <ele>105.5</ele>
        <time>2024-11-14T08:27:04Z</time>
      </trkpt>
      <trkpt lat="48.71091" lon="2.06103">
        <ele>105.1</ele>
        <time>2024-11-14T08:27:13Z</time>
      </trkpt>
      <trkpt lat="48.71099" lon="2.06098">
        <ele>104.8</ele>
        <time>2024-11-14T08:27:19Z</time>
      </trkpt>
      <trkpt lat="48.71107" lon="2.0609">
        <ele>104.8</ele>
        <time>2024-11-14T08:27:26Z</time>
      </trkpt>
      <trkpt lat="48.71114" lon="2.06078">
        <ele>105.4</ele>
        <time>2024-11-14T08:27:32Z</time>
      </trkpt>
      <trkpt lat="48.71117" lon="2.06065">
        <ele>106.6</ele>
        <time>2024-11-14T08:27:40Z</time>
      </trkpt>
      <trkpt lat="48.71114" lon="2.06051">
        <ele>108.5</ele>
        <time>2024-11-14T08:27:50Z</time>
      </trkpt>
      <trkpt lat="48.71109" lon="2.06037">
        <ele>110.9</ele>
        <time>2024-11-14T08:27:58Z</time>
      </trkpt>
      <trkpt lat="48.71105" lon="2.06025">
        <ele>113.5</ele>
        <time>2024-11-14T08:28:08Z</time>
      </trkpt>
      <trkpt lat="48.71104" lon="2.06011">
        <ele>116.4</ele>
        <time>2024-11-14T08:28:18Z</time>
      </trkpt>
      <trkpt lat="48.71111" lon="2.06001">
        <ele>117.9</ele>
        <time>2024-11-14T08:28:28Z</time>
      </trkpt>
      <trkpt lat="48.71118" lon="2.05991">
        <ele>119.2</ele>
        <time>2024-11-14T08:28:38Z</time>
      </trkpt>
      <trkpt lat="48.71126" lon="2.05985">
        <ele>119.6</ele>
        <time>2024-11-14T08:28:47Z</time>
      </trkpt>
      <trkpt lat="48.71135" lon="2.05983">
        <ele>119.2</ele>
        <time>2024-11-14T08:28:59Z</time>
      </trkpt>
      <trkpt lat="48.71144" lon="2.05977">
        <ele>119.9</ele>
        <time>2024-11-14T08:29:07Z</time>
      </trkpt>
      <trkpt lat="48.71153" lon="2.05968">
        <ele>121.5</ele>
        <time>2024-11-14T08:29:15Z</time>
      </trkpt>
      <trkpt lat="48.7116" lon="2.05958">
        <ele>123.5</ele>
        <time>2024-11-14T08:29:22Z</time>
      </trkpt>
      <trkpt lat="48.71168" lon="2.0595">
        <ele>124.8</ele>
        <time>2024-11-14T08:29:30Z</time>
      </trkpt>
      <trkpt lat="48.71175" lon="2.05941">
        <ele>126.5</ele>
        <time>2024-11-14T08:29:37Z</time>
      </trkpt>
      <trkpt lat="48.71184" lon="2.05937">
        <ele>127.3</ele>
        <time>2024-11-14T08:29:53Z</time>
      </trkpt>
      <trkpt lat="48.71193" lon="2.05939">
        <ele>126.6</ele>
        <time>2024-11-14T08:30:08Z</time>
      </trkpt>
      <trkpt lat="48.71202" lon="2.05944">
        <ele>127.1</ele>
        <time>2024-11-14T08:30:17Z</time>
      </trkpt>
      <trkpt lat="48.71211" lon="2.0595">
        <ele>127.8</ele>
        <time>2024-11-14T08:30:27Z</time>
      </trkpt>
      <trkpt lat="48.7122" lon="2.05956">
        <ele>128.7</ele>
        <time>2024-11-14T08:30:36Z</time>
      </trkpt>
      <trkpt lat="48.7123" lon="2.05958">
        <ele>129.3</ele>
        <time>2024-11-14T08:30:45Z</time>
      </trkpt>
      <trkpt lat="48.7124" lon="2.05957">
        <ele>130.7</ele>
        <time>2024-11-14T08:30:53Z</time>
      </trkpt>
      <trkpt lat="48.71249" lon="2.05957">
        <ele>131.8</ele>
        <time>2024-11-14T08:31:01Z</time>
      </trkpt>
      <trkpt lat="48.71259" lon="2.05955">
        <ele>131.8</ele>
        <time>2024-11-14T08:31:22Z</time>
      </trkpt>
      <trkpt lat="48.71268" lon="2.05952">
        <ele>132.1</ele>
        <time>2024-11-14T08:31:31Z</time>
      </trkpt>
      <trkpt lat="48.71277" lon="2.05948">
        <ele>132.4</ele>
        <time>2024-11-14T08:31:37Z</time>
      </trkpt>
      <trkpt lat="48.71285" lon="2.05941">
        <ele>132.4</ele>
        <time>2024-11-14T08:31:43Z</time>
      </trkpt>
      <trkpt lat="48.71295" lon="2.05936">
        <ele>131.9</ele>
        <time>2024-11-14T08:31:48Z</time>
      </trkpt>
      <trkpt lat="48.71305" lon="2.05931">
        <ele>131.1</ele>
        <time>2024-11-14T08:31:54Z</time>
      </trkpt>
      <trkpt lat="48.71313" lon="2.05925">
        <ele>130.5</ele>
        <time>2024-11-14T08:32:00Z</time>
      </trkpt>
      <trkpt lat="48.71322" lon="2.05917">
        <ele>129.9</ele>
        <time>2024-11-14T08:32:07Z</time>
      </trkpt>
      <trkpt lat="48.71331" lon="2.05911">
        <ele>129.4</ele>
        <time>2024-11-14T08:32:13Z</time>
      </trkpt>
      <trkpt lat="48.7134" lon="2.05912">
        <ele>128.3</ele>
        <time>2024-11-14T08:32:21Z</time>
      </trkpt>
      <trkpt lat="48.71349" lon="2.05908">
        <ele>128.3</ele>
        <time>2024-11-14T08:32:30Z</time>
      </trkpt>
      <trkpt lat="48.71358" lon="2.05902">
        <ele>128.5</ele>
        <time>2024-11-14T08:32:38Z</time>
      </trkpt>
      <trkpt lat="48.71366" lon="2.05895">
        <ele>129</ele>
        <time>2024-11-14T08:32:45Z</time>
      </trkpt>
      <trkpt lat="48.71376" lon="2.05892">
        <ele>129.1</ele>
        <time>2024-11-14T08:32:53Z</time>
      </trkpt>
      <trkpt lat="48.71386" lon="2.0589">
        <ele>129</ele>
        <time>2024-11-14T08:33:00Z</time>
      </trkpt>
      <trkpt lat="48.71394" lon="2.05884">
        <ele>129.6</ele>
        <time>2024-11-14T08:33:24Z</time>
      </trkpt>
      <trkpt lat="48.71403" lon="2.05878">
        <ele>130</ele>
        <time>2024-11-14T08:33:31Z</time>
      </trkpt>
      <trkpt lat="48.7141" lon="2.05869">
        <ele>131.1</ele>
        <time>2024-11-14T08:33:38Z</time>
      </trkpt>
      <trkpt lat="48.71416" lon="2.05857">
        <ele>132.6</ele>
        <time>2024-11-14T08:33:44Z</time>
      </trkpt>
      <trkpt lat="48.71421" lon="2.05844">
        <ele>134.3</ele>
        <time>2024-11-14T08:33:51Z</time>
      </trkpt>
      <trkpt lat="48.71427" lon="2.05833">
        <ele>135.6</ele>
        <time>2024-11-14T08:34:00Z</time>
      </trkpt>
      <trkpt lat="48.71434" lon="2.05824">
        <ele>136.7</ele>
        <time>2024-11-14T08:34:07Z</time>
      </trkpt>
      <trkpt lat="48.71441" lon="2.05815">
        <ele>137.8</ele>
        <time>2024-11-14T08:34:16Z</time>
      </trkpt>
      <trkpt lat="48.71446" lon="2.05803">
        <ele>139.4</ele>
        <time>2024-11-14T08:34:25Z</time>
      </trkpt>
      <trkpt lat="48.71453" lon="2.05792">
        <ele>140.6</ele>
        <time>2024-11-14T08:34:38Z</time>
      </trkpt>
      <trkpt lat="48.71459" lon="2.0578">
        <ele>142.2</ele>
        <time>2024-11-14T08:34:49Z</time>
      </trkpt>
      <trkpt lat="48.71465" lon="2.05768">
        <ele>143.9</ele>
        <time>2024-11-14T08:34:58Z</time>
      </trkpt>
      <trkpt lat="48.71469" lon="2.05754">
        <ele>145.7</ele>
        <time>2024-11-14T08:35:08Z</time>
      </trkpt>
      <trkpt lat="48.7147" lon="2.0574">
        <ele>147</ele>
        <time>2024-11-14T08:35:18Z</time>
      </trkpt>
      <trkpt lat="48.71467" lon="2.05726">
        <ele>148.5</ele>
        <time>2024-11-14T08:35:28Z</time>
      </trkpt>
      <trkpt lat="48.71465" lon="2.05711">
        <ele>149.9</ele>
        <time>2024-11-14T08:35:37Z</time>
      </trkpt>
      <trkpt lat="48.71463" lon="2.05698">
        <ele>151.1</ele>
        <time>2024-11-14T08:35:44Z</time>
      </trkpt>
      <trkpt lat="48.7146" lon="2.05685">
        <ele>152.4</ele>
        <time>2024-11-14T08:35:52Z</time>
      </trkpt>
      <trkpt lat="48.71453" lon="2.05675">
        <ele>154.2</ele>
        <time>2024-11-14T08:36:01Z</time>
      </trkpt>
      <trkpt lat="48.71448" lon="2.05662">
        <ele>155.8</ele>
        <time>2024-11-14T08:38:56Z</time>
      </trkpt>
      <trkpt lat="48.71448" lon="2.05647">
        <ele>156.9</ele>
        <time>2024-11-14T08:39:04Z</time>
      </trkpt>
      <trkpt lat="48.71447" lon="2.05632">
        <ele>157.8</ele>
        <time>2024-11-14T08:39:11Z</time>
      </trkpt>
      <trkpt lat="48.71445" lon="2.05617">
        <ele>158.7</ele>
        <time>2024-11-14T08:39:17Z</time>
      </trkpt>
      <trkpt lat="48.71442" lon="2.05604">
        <ele>159.4</ele>
        <time>2024-11-14T08:39:24Z</time>
      </trkpt>
      <trkpt lat="48.71439" lon="2.0559">
        <ele>160.1</ele>
        <time>2024-11-14T08:39:31Z</time>
      </trkpt>
      <trkpt lat="48.71438" lon="2.05576">
        <ele>160.5</ele>
        <time>2024-11-14T08:39:40Z</time>
      </trkpt>
      <trkpt lat="48.71436" lon="2.05562">
        <ele>160.6</ele>
        <time>2024-11-14T08:39:47Z</time>
      </trkpt>
      <trkpt lat="48.71439" lon="2.05548">
        <ele>160.4</ele>
        <time>2024-11-14T08:39:54Z</time>
      </trkpt>
      <trkpt lat="48.71442" lon="2.05534">
        <ele>160.2</ele>
        <time>2024-11-14T08:40:02Z</time>
      </trkpt>
      <trkpt lat="48.71446" lon="2.05522">
        <ele>160.1</ele>
        <time>2024-11-14T08:40:10Z</time>
      </trkpt>
      <trkpt lat="48.71452" lon="2.0551">
        <ele>160.3</ele>
        <time>2024-11-14T08:40:18Z</time>
      </trkpt>
      <trkpt lat="48.71458" lon="2.055">
        <ele>160.5</ele>
        <time>2024-11-14T08:40:25Z</time>
      </trkpt>
      <trkpt lat="48.71466" lon="2.05493">
        <ele>160.5</ele>
        <time>2024-11-14T08:40:32Z</time>
      </trkpt>
      <trkpt lat="48.71471" lon="2.05481">
        <ele>160.7</ele>
        <time>2024-11-14T08:40:38Z</time>
      </trkpt>
      <trkpt lat="48.71475" lon="2.05467">
        <ele>161</ele>
        <time>2024-11-14T08:40:47Z</time>
      </trkpt>
      <trkpt lat="48.71481" lon="2.05456">
        <ele>160.9</ele>
        <time>2024-11-14T08:40:54Z</time>
      </trkpt>
      <trkpt lat="48.71489" lon="2.05446">
        <ele>160.7</ele>
        <time>2024-11-14T08:41:02Z</time>
      </trkpt>
      <trkpt lat="48.71498" lon="2.05439">
        <ele>160.5</ele>
        <time>2024-11-14T08:41:09Z</time>
      </trkpt>
      <trkpt lat="48.71505" lon="2.05428">
        <ele>160.9</ele>
        <time>2024-11-14T08:41:17Z</time>
      </trkpt>
      <trkpt lat="48.7151" lon="2.05417">
        <ele>161.2</ele>
        <time>2024-11-14T08:41:24Z</time>
      </trkpt>
      <trkpt lat="48.71517" lon="2.05406">
        <ele>161</ele>
        <time>2024-11-14T08:41:30Z</time>
      </trkpt>
      <trkpt lat="48.71522" lon="2.05392">
        <ele>161.1</ele>
        <time>2024-11-14T08:41:36Z</time>
      </trkpt>
      <trkpt lat="48.71528" lon="2.05381">
        <ele>161</ele>
        <time>2024-11-14T08:41:41Z</time>
      </trkpt>
      <trkpt lat="48.71533" lon="2.05369">
        <ele>160.6</ele>
        <time>2024-11-14T08:41:46Z</time>
      </trkpt>
      <trkpt lat="48.71537" lon="2.05356">
        <ele>160.5</ele>
        <time>2024-11-14T08:41:50Z</time>
      </trkpt>
      <trkpt lat="48.71543" lon="2.05342">
        <ele>160.6</ele>
        <time>2024-11-14T08:41:55Z</time>
      </trkpt>
      <trkpt lat="48.71551" lon="2.05334">
        <ele>160.3</ele>
        <time>2024-11-14T08:42:01Z</time>
      </trkpt>
      <trkpt lat="48.7156" lon="2.05331">
        <ele>159.5</ele>
        <time>2024-11-14T08:42:08Z</time>
      </trkpt>
      <trkpt lat="48.71569" lon="2.05326">
        <ele>158.7</ele>
        <time>2024-11-14T08:42:15Z</time>
      </trkpt>
      <trkpt lat="48.71578" lon="2.05323">
        <ele>157.8</ele>
        <time>2024-11-14T08:42:22Z</time>
      </trkpt>
      <trkpt lat="48.71587" lon="2.05316">
        <ele>157.1</ele>
        <time>2024-11-14T08:42:29Z</time>
      </trkpt>
      <trkpt lat="48.71597" lon="2.05311">
        <ele>156.2</ele>
        <time>2024-11-14T08:42:36Z</time>
      </trkpt>
      <trkpt lat="48.71606" lon="2.05308">
        <ele>155.4</ele>
        <time>2024-11-14T08:42:42Z</time>
      </trkpt>
      <trkpt lat="48.71615" lon="2.05304">
        <ele>154.7</ele>
        <time>2024-11-14T08:42:49Z</time>
      </trkpt>
      <trkpt lat="48.71622" lon="2.05293">
        <ele>154.9</ele>
        <time>2024-11-14T08:42:55Z</time>
      </trkpt>
      <trkpt lat="48.7163" lon="2.05284">
        <ele>155</ele>
        <time>2024-11-14T08:43:01Z</time>
      </trkpt>
      <trkpt lat="48.71639" lon="2.05276">
        <ele>155.1</ele>
        <time>2024-11-14T08:43:09Z</time>
      </trkpt>
      <trkpt lat="48.71647" lon="2.0527">
        <ele>155.2</ele>
        <time>2024-11-14T08:43:15Z</time>
      </trkpt>
      <trkpt lat="48.71656" lon="2.05266">
        <ele>155.2</ele>
        <time>2024-11-14T08:43:22Z</time>
      </trkpt>
      <trkpt lat="48.71666" lon="2.05266">
        <ele>154.9</ele>
        <time>2024-11-14T08:43:29Z</time>
      </trkpt>
      <trkpt lat="48.71676" lon="2.05262">
        <ele>154.6</ele>
        <time>2024-11-14T08:43:35Z</time>
      </trkpt>
      <trkpt lat="48.71685" lon="2.05258">
        <ele>154.6</ele>
        <time>2024-11-14T08:43:41Z</time>
      </trkpt>
      <trkpt lat="48.71694" lon="2.05257">
        <ele>154.2</ele>
        <time>2024-11-14T08:43:47Z</time>
      </trkpt>
      <trkpt lat="48.71703" lon="2.05257">
        <ele>153.8</ele>
        <time>2024-11-14T08:43:54Z</time>
      </trkpt>
      <trkpt lat="48.71713" lon="2.05256">
        <ele>153.6</ele>
        <time>2024-11-14T08:44:01Z</time>
      </trkpt>
      <trkpt lat="48.71722" lon="2.05256">
        <ele>153.2</ele>
        <time>2024-11-14T08:44:10Z</time>
      </trkpt>
      <trkpt lat="48.71732" lon="2.05251">
        <ele>153.5</ele>
        <time>2024-11-14T08:44:17Z</time>
      </trkpt>
      <trkpt lat="48.71742" lon="2.0525">
        <ele>153.3</ele>
        <time>2024-11-14T08:44:25Z</time>
      </trkpt>
      <trkpt lat="48.71752" lon="2.05249">
        <ele>153</ele>
        <time>2024-11-14T08:44:34Z</time>
      </trkpt>
      <trkpt lat="48.71762" lon="2.05249">
        <ele>152.7</ele>
        <time>2024-11-14T08:44:40Z</time>
      </trkpt>
      <trkpt lat="48.71771" lon="2.05246">
        <ele>152.7</ele>
        <time>2024-11-14T08:44:46Z</time>
      </trkpt>
      <trkpt lat="48.71781" lon="2.05245">
        <ele>152.7</ele>
        <time>2024-11-14T08:44:53Z</time>
      </trkpt>
      <trkpt lat="48.71791" lon="2.05242">
        <ele>153.3</ele>
        <time>2024-11-14T08:44:59Z</time>
      </trkpt>
      <trkpt lat="48.718" lon="2.0524">
        <ele>153.9</ele>
        <time>2024-11-14T08:45:05Z</time>
      </trkpt>
      <trkpt lat="48.7181" lon="2.05239">
        <ele>154.5</ele>
        <time>2024-11-14T08:45:12Z</time>
      </trkpt>
      <trkpt lat="48.7182" lon="2.05239">
        <ele>155.4</ele>
        <time>2024-11-14T08:45:19Z</time>
      </trkpt>
      <trkpt lat="48.7183" lon="2.05238">
        <ele>156.2</ele>
        <time>2024-11-14T08:45:25Z</time>
      </trkpt>
      <trkpt lat="48.71839" lon="2.05243">
        <ele>156.5</ele>
        <time>2024-11-14T08:45:32Z</time>
      </trkpt>
      <trkpt lat="48.71847" lon="2.05249">
        <ele>156.6</ele>
        <time>2024-11-14T08:45:40Z</time>
      </trkpt>
      <trkpt lat="48.71857" lon="2.05253">
        <ele>156.7</ele>
        <time>2024-11-14T08:45:47Z</time>
      </trkpt>
      <trkpt lat="48.71867" lon="2.05254">
        <ele>156.9</ele>
        <time>2024-11-14T08:45:53Z</time>
      </trkpt>
      <trkpt lat="48.71876" lon="2.05256">
        <ele>156.9</ele>
        <time>2024-11-14T08:45:59Z</time>
      </trkpt>
      <trkpt lat="48.71885" lon="2.05256">
        <ele>157</ele>
        <time>2024-11-14T08:46:05Z</time>
      </trkpt>
      <trkpt lat="48.71896" lon="2.05256">
        <ele>157</ele>
        <time>2024-11-14T08:46:11Z</time>
      </trkpt>
      <trkpt lat="48.71906" lon="2.05256">
        <ele>157</ele>
        <time>2024-11-14T08:46:16Z</time>
      </trkpt>
      <trkpt lat="48.71915" lon="2.05257">
        <ele>157</ele>
        <time>2024-11-14T08:46:21Z</time>
      </trkpt>
      <trkpt lat="48.71926" lon="2.0526">
        <ele>156.9</ele>
        <time>2024-11-14T08:46:28Z</time>
      </trkpt>
      <trkpt lat="48.71935" lon="2.05262">
        <ele>156.7</ele>
        <time>2024-11-14T08:46:35Z</time>
      </trkpt>
      <trkpt lat="48.71944" lon="2.05266">
        <ele>156.4</ele>
        <time>2024-11-14T08:46:43Z</time>
      </trkpt>
      <trkpt lat="48.71953" lon="2.05274">
        <ele>155.8</ele>
        <time>2024-11-14T08:46:51Z</time>
      </trkpt>
      <trkpt lat="48.71959" lon="2.05285">
        <ele>155.3</ele>
        <time>2024-11-14T08:46:58Z</time>
      </trkpt>
      <trkpt lat="48.71967" lon="2.05296">
        <ele>154.7</ele>
        <time>2024-11-14T08:47:05Z</time>
      </trkpt>
      <trkpt lat="48.71971" lon="2.05309">
        <ele>153.9</ele>
        <time>2024-11-14T08:47:15Z</time>
      </trkpt>
      <trkpt lat="48.7198" lon="2.05315">
        <ele>153.3</ele>
        <time>2024-11-14T08:47:25Z</time>
      </trkpt>
      <trkpt lat="48.71987" lon="2.05323">
        <ele>152.5</ele>
        <time>2024-11-14T08:48:08Z</time>
      </trkpt>
      <trkpt lat="48.71991" lon="2.05337">
        <ele>151.4</ele>
        <time>2024-11-14T08:48:20Z</time>
      </trkpt>
      <trkpt lat="48.71996" lon="2.05348">
        <ele>149.8</ele>
        <time>2024-11-14T08:48:36Z</time>
      </trkpt>
      <trkpt lat="48.71999" lon="2.05362">
        <ele>148</ele>
        <time>2024-11-14T08:48:47Z</time>
      </trkpt>
      <trkpt lat="48.72005" lon="2.05374">
        <ele>146</ele>
        <time>2024-11-14T08:48:54Z</time>
      </trkpt>
      <trkpt lat="48.72009" lon="2.05386">
        <ele>144</ele>
        <time>2024-11-14T08:49:09Z</time>
      </trkpt>
      <trkpt lat="48.72013" lon="2.054">
        <ele>142.1</ele>
        <time>2024-11-14T08:49:20Z</time>
      </trkpt>
      <trkpt lat="48.72015" lon="2.05414">
        <ele>140.5</ele>
        <time>2024-11-14T08:49:35Z</time>
      </trkpt>
      <trkpt lat="48.72024" lon="2.05414">
        <ele>138.9</ele>
        <time>2024-11-14T08:49:50Z</time>
      </trkpt>
      <trkpt lat="48.72033" lon="2.0542">
        <ele>137.6</ele>
        <time>2024-11-14T08:50:04Z</time>
      </trkpt>
      <trkpt lat="48.72043" lon="2.05423">
        <ele>137.1</ele>
        <time>2024-11-14T08:50:09Z</time>
      </trkpt>
      <trkpt lat="48.72049" lon="2.05435">
        <ele>135.5</ele>
        <time>2024-11-14T08:50:18Z</time>
      </trkpt>
      <trkpt lat="48.72054" lon="2.05449">
        <ele>133.4</ele>
        <time>2024-11-14T08:50:27Z</time>
      </trkpt>
      <trkpt lat="48.72064" lon="2.05455">
        <ele>132.8</ele>
        <time>2024-11-14T08:50:35Z</time>
      </trkpt>
      <trkpt lat="48.72073" lon="2.05457">
        <ele>132.8</ele>
        <time>2024-11-14T08:50:40Z</time>
      </trkpt>
      <trkpt lat="48.72083" lon="2.05457">
        <ele>133.2</ele>
        <time>2024-11-14T08:50:44Z</time>
      </trkpt>
      <trkpt lat="48.72092" lon="2.05462">
        <ele>133.1</ele>
        <time>2024-11-14T08:50:50Z</time>
      </trkpt>
      <trkpt lat="48.72099" lon="2.05472">
        <ele>132.2</ele>
        <time>2024-11-14T08:50:57Z</time>
      </trkpt>
      <trkpt lat="48.72107" lon="2.0548">
        <ele>131.6</ele>
        <time>2024-11-14T08:51:04Z</time>
      </trkpt>
      <trkpt lat="48.72115" lon="2.05487">
        <ele>131.1</ele>
        <time>2024-11-14T08:51:14Z</time>
      </trkpt>
      <trkpt lat="48.72124" lon="2.05491">
        <ele>130.8</ele>
        <time>2024-11-14T08:51:25Z</time>
      </trkpt>
      <trkpt lat="48.72116" lon="2.05484">
        <ele>131.5</ele>
        <time>2024-11-14T08:51:43Z</time>
      </trkpt>
      <trkpt lat="48.72106" lon="2.05484">
        <ele>131</ele>
        <time>2024-11-14T08:51:53Z</time>
      </trkpt>
      <trkpt lat="48.72096" lon="2.05483">
        <ele>130.4</ele>
        <time>2024-11-14T08:52:01Z</time>
      </trkpt>
      <trkpt lat="48.72102" lon="2.05473">
        <ele>132.3</ele>
        <time>2024-11-14T08:52:13Z</time>
      </trkpt>
      <trkpt lat="48.72111" lon="2.05466">
        <ele>134</ele>
        <time>2024-11-14T08:52:20Z</time>
      </trkpt>
      <trkpt lat="48.72115" lon="2.0548">
        <ele>131.9</ele>
        <time>2024-11-14T08:52:34Z</time>
      </trkpt>
      <trkpt lat="48.72111" lon="2.05495">
        <ele>129.7</ele>
        <time>2024-11-14T08:52:40Z</time>
      </trkpt>
      <trkpt lat="48.72105" lon="2.05506">
        <ele>127.9</ele>
        <time>2024-11-14T08:52:48Z</time>
      </trkpt>
      <trkpt lat="48.72097" lon="2.05513">
        <ele>126.8</ele>
        <time>2024-11-14T08:52:54Z</time>
      </trkpt>
      <trkpt lat="48.72089" lon="2.05522">
        <ele>125.7</ele>
        <time>2024-11-14T08:53:00Z</time>
      </trkpt>
      <trkpt lat="48.72084" lon="2.05533">
        <ele>124.5</ele>
        <time>2024-11-14T08:53:05Z</time>
      </trkpt>
      <trkpt lat="48.72078" lon="2.05545">
        <ele>122.9</ele>
        <time>2024-11-14T08:53:09Z</time>
      </trkpt>
      <trkpt lat="48.72072" lon="2.05554">
        <ele>121.7</ele>
        <time>2024-11-14T08:53:14Z</time>
      </trkpt>
      <trkpt lat="48.72066" lon="2.05567">
        <ele>120.1</ele>
        <time>2024-11-14T08:53:18Z</time>
      </trkpt>
      <trkpt lat="48.7206" lon="2.05579">
        <ele>118.6</ele>
        <time>2024-11-14T08:53:22Z</time>
      </trkpt>
      <trkpt lat="48.72056" lon="2.05592">
        <ele>117.4</ele>
        <time>2024-11-14T08:53:27Z</time>
      </trkpt>
      <trkpt lat="48.72052" lon="2.05604">
        <ele>116.7</ele>
        <time>2024-11-14T08:53:33Z</time>
      </trkpt>
      <trkpt lat="48.72042" lon="2.05608">
        <ele>116.8</ele>
        <time>2024-11-14T08:53:48Z</time>
      </trkpt>
      <trkpt lat="48.72033" lon="2.05614">
        <ele>116.5</ele>
        <time>2024-11-14T08:53:53Z</time>
      </trkpt>
      <trkpt lat="48.72025" lon="2.05621">
        <ele>116.5</ele>
        <time>2024-11-14T08:53:58Z</time>
      </trkpt>
      <trkpt lat="48.72016" lon="2.05623">
        <ele>118.1</ele>
        <time>2024-11-14T08:54:05Z</time>
      </trkpt>
      <trkpt lat="48.72007" lon="2.05628">
        <ele>119.3</ele>
        <time>2024-11-14T08:54:12Z</time>
      </trkpt>
      <trkpt lat="48.71998" lon="2.05637">
        <ele>119.7</ele>
        <time>2024-11-14T08:54:20Z</time>
      </trkpt>
      <trkpt lat="48.71991" lon="2.05645">
        <ele>120.4</ele>
        <time>2024-11-14T08:54:27Z</time>
      </trkpt>
      <trkpt lat="48.71983" lon="2.05654">
        <ele>121</ele>
        <time>2024-11-14T08:54:34Z</time>
      </trkpt>
      <trkpt lat="48.71976" lon="2.0566">
        <ele>122</ele>
        <time>2024-11-14T08:54:42Z</time>
      </trkpt>
      <trkpt lat="48.71967" lon="2.05667">
        <ele>123</ele>
        <time>2024-11-14T08:54:50Z</time>
      </trkpt>
      <trkpt lat="48.71958" lon="2.05673">
        <ele>123.7</ele>
        <time>2024-11-14T08:54:57Z</time>
      </trkpt>
      <trkpt lat="48.7195" lon="2.0568">
        <ele>124</ele>
        <time>2024-11-14T08:55:04Z</time>
      </trkpt>
      <trkpt lat="48.71943" lon="2.05688">
        <ele>124.2</ele>
        <time>2024-11-14T08:55:12Z</time>
      </trkpt>
      <trkpt lat="48.71944" lon="2.05702">
        <ele>122.3</ele>
        <time>2024-11-14T08:55:43Z</time>
      </trkpt>
      <trkpt lat="48.71953" lon="2.05705">
        <ele>120.3</ele>
        <time>2024-11-14T08:56:00Z</time>
      </trkpt>
      <trkpt lat="48.71961" lon="2.05715">
        <ele>117.9</ele>
        <time>2024-11-14T08:56:08Z</time>
      </trkpt>
      <trkpt lat="48.71961" lon="2.05729">
        <ele>116.3</ele>
        <time>2024-11-14T08:56:20Z</time>
      </trkpt>
      <trkpt lat="48.71959" lon="2.05744">
        <ele>115.1</ele>
        <time>2024-11-14T08:56:28Z</time>
      </trkpt>
      <trkpt lat="48.71958" lon="2.05757">
        <ele>113.9</ele>
        <time>2024-11-14T08:56:35Z</time>
      </trkpt>
      <trkpt lat="48.71964" lon="2.05769">
        <ele>112.1</ele>
        <time>2024-11-14T08:56:42Z</time>
      </trkpt>
      <trkpt lat="48.71968" lon="2.05782">
        <ele>110.4</ele>
        <time>2024-11-14T08:56:52Z</time>
      </trkpt>
      <trkpt lat="48.71971" lon="2.05797">
        <ele>109.5</ele>
        <time>2024-11-14T08:57:02Z</time>
      </trkpt>
      <trkpt lat="48.71973" lon="2.05812">
        <ele>108.4</ele>
        <time>2024-11-14T08:57:10Z</time>
      </trkpt>
      <trkpt lat="48.71978" lon="2.05828">
        <ele>107</ele>
        <time>2024-11-14T08:57:16Z</time>
      </trkpt>
      <trkpt lat="48.71983" lon="2.05839">
        <ele>106</ele>
        <time>2024-11-14T08:57:23Z</time>
      </trkpt>
      <trkpt lat="48.71987" lon="2.05851">
        <ele>105.3</ele>
        <time>2024-11-14T08:57:29Z</time>
      </trkpt>
      <trkpt lat="48.71992" lon="2.05865">
        <ele>104.4</ele>
        <time>2024-11-14T08:57:36Z</time>
      </trkpt>
      <trkpt lat="48.71995" lon="2.0588">
        <ele>103.6</ele>
        <time>2024-11-14T08:57:43Z</time>
      </trkpt>
      <trkpt lat="48.71998" lon="2.05895">
        <ele>102.6</ele>
        <time>2024-11-14T08:57:50Z</time>
      </trkpt>
      <trkpt lat="48.72004" lon="2.05907">
        <ele>101.4</ele>
        <time>2024-11-14T08:57:56Z</time>
      </trkpt>
      <trkpt lat="48.72007" lon="2.05922">
        <ele>100.3</ele>
        <time>2024-11-14T08:58:03Z</time>
      </trkpt>
      <trkpt lat="48.72009" lon="2.05938">
        <ele>99.6</ele>
        <time>2024-11-14T08:58:10Z</time>
      </trkpt>
      <trkpt lat="48.72011" lon="2.05952">
        <ele>98.8</ele>
        <time>2024-11-14T08:58:17Z</time>
      </trkpt>
      <trkpt lat="48.72013" lon="2.05967">
        <ele>97.8</ele>
        <time>2024-11-14T08:58:24Z</time>
      </trkpt>
      <trkpt lat="48.72017" lon="2.0598">
        <ele>97.1</ele>
        <time>2024-11-14T08:58:31Z</time>
      </trkpt>
      <trkpt lat="48.72022" lon="2.05992">
        <ele>96.5</ele>
        <time>2024-11-14T08:58:37Z</time>
      </trkpt>
      <trkpt lat="48.72028" lon="2.06004">
        <ele>95.7</ele>
        <time>2024-11-14T08:59:18Z</time>
      </trkpt>
      <trkpt lat="48.72032" lon="2.06017">
        <ele>94.6</ele>
        <time>2024-11-14T08:59:42Z</time>
      </trkpt>
      <trkpt lat="48.72033" lon="2.06031">
        <ele>93.7</ele>
        <time>2024-11-14T08:59:50Z</time>
      </trkpt>
      <trkpt lat="48.72036" lon="2.06044">
        <ele>93.1</ele>
        <time>2024-11-14T08:59:59Z</time>
      </trkpt>
      <trkpt lat="48.72042" lon="2.06055">
        <ele>92.5</ele>
        <time>2024-11-14T09:00:07Z</time>
      </trkpt>
      <trkpt lat="48.72043" lon="2.0607">
        <ele>92</ele>
        <time>2024-11-14T09:00:17Z</time>
      </trkpt>
      <trkpt lat="48.72048" lon="2.06081">
        <ele>91.3</ele>
        <time>2024-11-14T09:00:24Z</time>
      </trkpt>
      <trkpt lat="48.72053" lon="2.06093">
        <ele>91.1</ele>
        <time>2024-11-14T09:00:30Z</time>
      </trkpt>
      <trkpt lat="48.72051" lon="2.06108">
        <ele>91</ele>
        <time>2024-11-14T09:00:39Z</time>
      </trkpt>
      <trkpt lat="48.72054" lon="2.06122">
        <ele>90.6</ele>
        <time>2024-11-14T09:00:49Z</time>
      </trkpt>
      <trkpt lat="48.72061" lon="2.06131">
        <ele>90.1</ele>
        <time>2024-11-14T09:00:56Z</time>
      </trkpt>
      <trkpt lat="48.72067" lon="2.06144">
        <ele>89.4</ele>
        <time>2024-11-14T09:01:03Z</time>
      </trkpt>
      <trkpt lat="48.72074" lon="2.06153">
        <ele>88.8</ele>
        <time>2024-11-14T09:01:10Z</time>
      </trkpt>
      <trkpt lat="48.72074" lon="2.06167">
        <ele>88.3</ele>
        <time>2024-11-14T09:01:18Z</time>
      </trkpt>
      <trkpt lat="48.72076" lon="2.06181">
        <ele>87.8</ele>
        <time>2024-11-14T09:01:26Z</time>
      </trkpt>
      <trkpt lat="48.7208" lon="2.06194">
        <ele>87.2</ele>
        <time>2024-11-14T09:01:36Z</time>
      </trkpt>
      <trkpt lat="48.72086" lon="2.06207">
        <ele>87</ele>
        <time>2024-11-14T09:01:44Z</time>
      </trkpt>
      <trkpt lat="48.72092" lon="2.06217">
        <ele>86.7</ele>
        <time>2024-11-14T09:01:50Z</time>
      </trkpt>
      <trkpt lat="48.72096" lon="2.0623">
        <ele>86.4</ele>
        <time>2024-11-14T09:01:56Z</time>
      </trkpt>
      <trkpt lat="48.721" lon="2.06242">
        <ele>86.1</ele>
        <time>2024-11-14T09:02:04Z</time>
      </trkpt>
      <trkpt lat="48.72106" lon="2.06254">
        <ele>85.9</ele>
        <time>2024-11-14T09:02:10Z</time>
      </trkpt>
      <trkpt lat="48.72112" lon="2.06265">
        <ele>85.5</ele>
        <time>2024-11-14T09:02:15Z</time>
      </trkpt>
      <trkpt lat="48.72118" lon="2.06275">
        <ele>85.1</ele>
        <time>2024-11-14T09:02:20Z</time>
      </trkpt>
      <trkpt lat="48.72124" lon="2.06286">
        <ele>85</ele>
        <time>2024-11-14T09:02:25Z</time>
      </trkpt>
      <trkpt lat="48.7213" lon="2.06297">
        <ele>85</ele>
        <time>2024-11-14T09:02:31Z</time>
      </trkpt>
      <trkpt lat="48.72131" lon="2.06312">
        <ele>85</ele>
        <time>2024-11-14T09:02:41Z</time>
      </trkpt>
      <trkpt lat="48.72139" lon="2.0632">
        <ele>85</ele>
        <time>2024-11-14T09:02:55Z</time>
      </trkpt>
      <trkpt lat="48.72147" lon="2.06328">
        <ele>85</ele>
        <time>2024-11-14T09:03:02Z</time>
      </trkpt>
      <trkpt lat="48.72155" lon="2.06336">
        <ele>85.1</ele>
        <time>2024-11-14T09:03:08Z</time>
      </trkpt>
      <trkpt lat="48.72163" lon="2.06345">
        <ele>85.4</ele>
        <time>2024-11-14T09:03:14Z</time>
      </trkpt>
      <trkpt lat="48.72168" lon="2.06358">
        <ele>85.9</ele>
        <time>2024-11-14T09:03:21Z</time>
      </trkpt>
      <trkpt lat="48.72174" lon="2.06369">
        <ele>86.5</ele>
        <time>2024-11-14T09:03:30Z</time>
      </trkpt>
      <trkpt lat="48.7218" lon="2.0638">
        <ele>87.1</ele>
        <time>2024-11-14T09:03:39Z</time>
      </trkpt>
      <trkpt lat="48.72184" lon="2.06392">
        <ele>87.8</ele>
        <time>2024-11-14T09:03:48Z</time>
      </trkpt>
      <trkpt lat="48.72188" lon="2.06404">
        <ele>88.7</ele>
        <time>2024-11-14T09:03:55Z</time>
      </trkpt>
      <trkpt lat="48.72195" lon="2.06414">
        <ele>89.8</ele>
        <time>2024-11-14T09:04:02Z</time>
      </trkpt>
      <trkpt lat="48.72205" lon="2.06418">
        <ele>90.5</ele>
        <time>2024-11-14T09:04:10Z</time>
      </trkpt>
      <trkpt lat="48.72214" lon="2.06421">
        <ele>91.2</ele>
        <time>2024-11-14T09:04:17Z</time>
      </trkpt>
      <trkpt lat="48.72221" lon="2.06431">
        <ele>92.5</ele>
        <time>2024-11-14T09:04:28Z</time>
      </trkpt>
      <trkpt lat="48.7223" lon="2.06435">
        <ele>93.3</ele>
        <time>2024-11-14T09:04:35Z</time>
      </trkpt>
      <trkpt lat="48.72239" lon="2.06439">
        <ele>94.2</ele>
        <time>2024-11-14T09:04:41Z</time>
      </trkpt>
      <trkpt lat="48.72247" lon="2.06446">
        <ele>95</ele>
        <time>2024-11-14T09:04:51Z</time>
      </trkpt>
      <trkpt lat="48.72256" lon="2.06451">
        <ele>95.7</ele>
        <time>2024-11-14T09:05:01Z</time>
      </trkpt>
      <trkpt lat="48.72264" lon="2.06457">
        <ele>96.4</ele>
        <time>2024-11-14T09:05:12Z</time>
      </trkpt>
      <trkpt lat="48.72273" lon="2.06461">
        <ele>97</ele>
        <time>2024-11-14T09:05:24Z</time>
      </trkpt>
      <trkpt lat="48.72282" lon="2.06459">
        <ele>97.3</ele>
        <time>2024-11-14T09:05:32Z</time>
      </trkpt>
      <trkpt lat="48.72291" lon="2.06452">
        <ele>97.2</ele>
        <time>2024-11-14T09:05:42Z</time>
      </trkpt>
      <trkpt lat="48.723" lon="2.06451">
        <ele>97.5</ele>
        <time>2024-11-14T09:05:57Z</time>
      </trkpt>
      <trkpt lat="48.7231" lon="2.06449">
        <ele>98.1</ele>
        <time>2024-11-14T09:06:08Z</time>
      </trkpt>
      <trkpt lat="48.72319" lon="2.06449">
        <ele>99.4</ele>
        <time>2024-11-14T09:06:15Z</time>
      </trkpt>
      <trkpt lat="48.72328" lon="2.06444">
        <ele>100.2</ele>
        <time>2024-11-14T09:06:22Z</time>
      </trkpt>
      <trkpt lat="48.72337" lon="2.06442">
        <ele>101.5</ele>
        <time>2024-11-14T09:06:29Z</time>
      </trkpt>
      <trkpt lat="48.72346" lon="2.06438">
        <ele>102.8</ele>
        <time>2024-11-14T09:06:36Z</time>
      </trkpt>
      <trkpt lat="48.72355" lon="2.06433">
        <ele>104.1</ele>
        <time>2024-11-14T09:06:44Z</time>
      </trkpt>
      <trkpt lat="48.72364" lon="2.06428">
        <ele>105.5</ele>
        <time>2024-11-14T09:06:57Z</time>
      </trkpt>
      <trkpt lat="48.72373" lon="2.06429">
        <ele>107.9</ele>
        <time>2024-11-14T09:07:06Z</time>
      </trkpt>
      <trkpt lat="48.72382" lon="2.06429">
        <ele>110.2</ele>
        <time>2024-11-14T09:07:14Z</time>
      </trkpt>
      <trkpt lat="48.72391" lon="2.06424">
        <ele>112</ele>
        <time>2024-11-14T09:07:23Z</time>
      </trkpt>
      <trkpt lat="48.72398" lon="2.06415">
        <ele>112.5</ele>
        <time>2024-11-14T09:07:34Z</time>
      </trkpt>
      <trkpt lat="48.72404" lon="2.06405">
        <ele>112.7</ele>
        <time>2024-11-14T09:07:42Z</time>
      </trkpt>
      <trkpt lat="48.72408" lon="2.06391">
        <ele>112</ele>
        <time>2024-11-14T09:07:48Z</time>
      </trkpt>
      <trkpt lat="48.72415" lon="2.06381">
        <ele>111.6</ele>
        <time>2024-11-14T09:07:56Z</time>
      </trkpt>
      <trkpt lat="48.7242" lon="2.06369">
        <ele>110.3</ele>
        <time>2024-11-14T09:08:03Z</time>
      </trkpt>
      <trkpt lat="48.72426" lon="2.06359">
        <ele>109.4</ele>
        <time>2024-11-14T09:08:11Z</time>
      </trkpt>
      <trkpt lat="48.72434" lon="2.06351">
        <ele>108.7</ele>
        <time>2024-11-14T09:08:19Z</time>
      </trkpt>
      <trkpt lat="48.72444" lon="2.06345">
        <ele>108.6</ele>
        <time>2024-11-14T09:08:30Z</time>
      </trkpt>
      <trkpt lat="48.72452" lon="2.06338">
        <ele>107.6</ele>
        <time>2024-11-14T09:08:39Z</time>
      </trkpt>
      <trkpt lat="48.72459" lon="2.06329">
        <ele>106.3</ele>
        <time>2024-11-14T09:08:49Z</time>
      </trkpt>
      <trkpt lat="48.72467" lon="2.06323">
        <ele>105.5</ele>
        <time>2024-11-14T09:09:00Z</time>
      </trkpt>
      <trkpt lat="48.72476" lon="2.06319">
        <ele>104.6</ele>
        <time>2024-11-14T09:09:07Z</time>
      </trkpt>
      <trkpt lat="48.72485" lon="2.06315">
        <ele>103.4</ele>
        <time>2024-11-14T09:09:14Z</time>
      </trkpt>
      <trkpt lat="48.72493" lon="2.06307">
        <ele>101.6</ele>
        <time>2024-11-14T09:09:24Z</time>
      </trkpt>
      <trkpt lat="48.725" lon="2.06297">
        <ele>100.1</ele>
        <time>2024-11-14T09:09:30Z</time>
      </trkpt>
      <trkpt lat="48.72509" lon="2.06294">
        <ele>99.6</ele>
        <time>2024-11-14T09:09:37Z</time>
      </trkpt>
      <trkpt lat="48.72519" lon="2.06288">
        <ele>98.9</ele>
        <time>2024-11-14T09:09:46Z</time>
      </trkpt>
      <trkpt lat="48.72526" lon="2.0628">
        <ele>98.2</ele>
        <time>2024-11-14T09:09:53Z</time>
      </trkpt>
      <trkpt lat="48.72534" lon="2.06271">
        <ele>97.8</ele>
        <time>2024-11-14T09:10:00Z</time>
      </trkpt>
      <trkpt lat="48.72542" lon="2.06262">
        <ele>97.6</ele>
        <time>2024-11-14T09:10:08Z</time>
      </trkpt>
      <trkpt lat="48.72548" lon="2.06252">
        <ele>97.5</ele>
        <time>2024-11-14T09:10:16Z</time>
      </trkpt>
      <trkpt lat="48.72553" lon="2.0624">
        <ele>97.4</ele>
        <time>2024-11-14T09:10:26Z</time>
      </trkpt>
      <trkpt lat="48.72559" lon="2.0623">
        <ele>97.8</ele>
        <time>2024-11-14T09:10:34Z</time>
      </trkpt>
      <trkpt lat="48.7256" lon="2.06216">
        <ele>97.7</ele>
        <time>2024-11-14T09:10:44Z</time>
      </trkpt>
      <trkpt lat="48.72561" lon="2.06201">
        <ele>98</ele>
        <time>2024-11-14T09:10:54Z</time>
      </trkpt>
      <trkpt lat="48.72569" lon="2.06193">
        <ele>99.4</ele>
        <time>2024-11-14T09:11:03Z</time>
      </trkpt>
      <trkpt lat="48.7257" lon="2.06179">
        <ele>99.9</ele>
        <time>2024-11-14T09:11:10Z</time>
      </trkpt>
      <trkpt lat="48.72574" lon="2.06166">
        <ele>100.9</ele>
        <time>2024-11-14T09:11:18Z</time>
      </trkpt>
      <trkpt lat="48.72576" lon="2.06152">
        <ele>102</ele>
        <time>2024-11-14T09:11:25Z</time>
      </trkpt>
      <trkpt lat="48.72577" lon="2.06138">
        <ele>102.7</ele>
        <time>2024-11-14T09:11:33Z</time>
      </trkpt>
      <trkpt lat="48.72581" lon="2.06125">
        <ele>103.5</ele>
        <time>2024-11-14T09:11:44Z</time>
      </trkpt>
      <trkpt lat="48.72584" lon="2.06111">
        <ele>104.2</ele>
        <time>2024-11-14T09:11:54Z</time>
      </trkpt>
      <trkpt lat="48.72584" lon="2.06097">
        <ele>104.6</ele>
        <time>2024-11-14T09:12:12Z</time>
      </trkpt>
      <trkpt lat="48.72578" lon="2.06085">
        <ele>103.8</ele>
        <time>2024-11-14T09:12:21Z</time>
      </trkpt>
      <trkpt lat="48.72579" lon="2.0607">
        <ele>104.1</ele>
        <time>2024-11-14T09:12:31Z</time>
      </trkpt>
      <trkpt lat="48.72583" lon="2.06058">
        <ele>105</ele>
        <time>2024-11-14T09:12:40Z</time>
      </trkpt>
      <trkpt lat="48.72589" lon="2.06044">
        <ele>105.2</ele>
        <time>2024-11-14T09:12:51Z</time>
      </trkpt>
      <trkpt lat="48.72597" lon="2.06035">
        <ele>105.7</ele>
        <time>2024-11-14T09:13:00Z</time>
      </trkpt>
      <trkpt lat="48.72605" lon="2.06028">
        <ele>106.3</ele>
        <time>2024-11-14T09:13:07Z</time>
      </trkpt>
      <trkpt lat="48.72613" lon="2.06022">
        <ele>106.6</ele>
        <time>2024-11-14T09:13:15Z</time>
      </trkpt>
      <trkpt lat="48.72623" lon="2.06025">
        <ele>106.8</ele>
        <time>2024-11-14T09:13:26Z</time>
      </trkpt>
      <trkpt lat="48.72633" lon="2.06025">
        <ele>106.8</ele>
        <time>2024-11-14T09:13:35Z</time>
      </trkpt>
      <trkpt lat="48.72642" lon="2.06023">
        <ele>106.5</ele>
        <time>2024-11-14T09:13:42Z</time>
      </trkpt>
      <trkpt lat="48.72651" lon="2.06014">
        <ele>105.6</ele>
        <time>2024-11-14T09:13:49Z</time>
      </trkpt>
      <trkpt lat="48.72659" lon="2.06008">
        <ele>104.8</ele>
        <time>2024-11-14T09:13:56Z</time>
      </trkpt>
      <trkpt lat="48.72669" lon="2.06003">
        <ele>104.1</ele>
        <time>2024-11-14T09:14:03Z</time>
      </trkpt>
      <trkpt lat="48.72679" lon="2.05999">
        <ele>103.4</ele>
        <time>2024-11-14T09:14:10Z</time>
      </trkpt>
      <trkpt lat="48.72688" lon="2.05992">
        <ele>102.6</ele>
        <time>2024-11-14T09:14:17Z</time>
      </trkpt>
      <trkpt lat="48.72697" lon="2.05985">
        <ele>102.1</ele>
        <time>2024-11-14T09:14:24Z</time>
      </trkpt>
      <trkpt lat="48.72706" lon="2.05978">
        <ele>102.2</ele>
        <time>2024-11-14T09:14:31Z</time>
      </trkpt>
      <trkpt lat="48.72715" lon="2.05972">
        <ele>102.4</ele>
        <time>2024-11-14T09:14:38Z</time>
      </trkpt>
      <trkpt lat="48.72723" lon="2.05964">
        <ele>102.3</ele>
        <time>2024-11-14T09:14:46Z</time>
      </trkpt>
      <trkpt lat="48.72732" lon="2.05956">
        <ele>102.3</ele>
        <time>2024-11-14T09:14:54Z</time>
      </trkpt>
      <trkpt lat="48.72741" lon="2.05949">
        <ele>102.5</ele>
        <time>2024-11-14T09:15:02Z</time>
      </trkpt>
      <trkpt lat="48.7275" lon="2.05944">
        <ele>103</ele>
        <time>2024-11-14T09:15:10Z</time>
      </trkpt>
      <trkpt lat="48.72758" lon="2.05939">
        <ele>102.7</ele>
        <time>2024-11-14T09:15:18Z</time>
      </trkpt>
      <trkpt lat="48.72768" lon="2.05936">
        <ele>102.7</ele>
        <time>2024-11-14T09:15:27Z</time>
      </trkpt>
      <trkpt lat="48.72777" lon="2.05932">
        <ele>102.6</ele>
        <time>2024-11-14T09:15:36Z</time>
      </trkpt>
      <trkpt lat="48.72786" lon="2.05929">
        <ele>103</ele>
        <time>2024-11-14T09:15:42Z</time>
      </trkpt>
      <trkpt lat="48.72797" lon="2.05927">
        <ele>103.5</ele>
        <time>2024-11-14T09:15:50Z</time>
      </trkpt>
      <trkpt lat="48.72807" lon="2.0593">
        <ele>104.5</ele>
        <time>2024-11-14T09:15:57Z</time>
      </trkpt>
      <trkpt lat="48.72816" lon="2.05928">
        <ele>104.6</ele>
        <time>2024-11-14T09:16:03Z</time>
      </trkpt>
      <trkpt lat="48.72826" lon="2.05923">
        <ele>104.5</ele>
        <time>2024-11-14T09:16:10Z</time>
      </trkpt>
      <trkpt lat="48.72836" lon="2.05918">
        <ele>104.2</ele>
        <time>2024-11-14T09:16:16Z</time>
      </trkpt>
      <trkpt lat="48.72846" lon="2.05911">
        <ele>104</ele>
        <time>2024-11-14T09:16:23Z</time>
      </trkpt>
      <trkpt lat="48.72855" lon="2.05906">
        <ele>104</ele>
        <time>2024-11-14T09:16:29Z</time>
      </trkpt>
      <trkpt lat="48.72864" lon="2.05898">
        <ele>104.1</ele>
        <time>2024-11-14T09:16:36Z</time>
      </trkpt>
      <trkpt lat="48.72871" lon="2.0589">
        <ele>104.8</ele>
        <time>2024-11-14T09:16:43Z</time>
      </trkpt>
      <trkpt lat="48.72876" lon="2.05877">
        <ele>105.2</ele>
        <time>2024-11-14T09:16:51Z</time>
      </trkpt>
      <trkpt lat="48.72878" lon="2.05862">
        <ele>104.9</ele>
        <time>2024-11-14T09:16:58Z</time>
      </trkpt>
      <trkpt lat="48.72885" lon="2.05854">
        <ele>105.1</ele>
        <time>2024-11-14T09:18:33Z</time>
      </trkpt>
      <trkpt lat="48.72902" lon="2.05867">
        <ele>107.9</ele>
        <time>2024-11-14T09:20:21Z</time>
      </trkpt>
      <trkpt lat="48.72896" lon="2.05856">
        <ele>106.3</ele>
        <time>2024-11-14T09:21:04Z</time>
      </trkpt>
      <trkpt lat="48.72893" lon="2.05843">
        <ele>105</ele>
        <time>2024-11-14T09:21:13Z</time>
      </trkpt>
      <trkpt lat="48.72892" lon="2.05829">
        <ele>104.1</ele>
        <time>2024-11-14T09:21:20Z</time>
      </trkpt>
      <trkpt lat="48.72891" lon="2.05815">
        <ele>103.4</ele>
        <time>2024-11-14T09:21:27Z</time>
      </trkpt>
      <trkpt lat="48.7289" lon="2.058">
        <ele>102.8</ele>
        <time>2024-11-14T09:21:36Z</time>
      </trkpt>
      <trkpt lat="48.72888" lon="2.05786">
        <ele>102.2</ele>
        <time>2024-11-14T09:21:46Z</time>
      </trkpt>
      <trkpt lat="48.72887" lon="2.05772">
        <ele>102.1</ele>
        <time>2024-11-14T09:22:56Z</time>
      </trkpt>
      <trkpt lat="48.72882" lon="2.05758">
        <ele>102.3</ele>
        <time>2024-11-14T09:23:04Z</time>
      </trkpt>
      <trkpt lat="48.72877" lon="2.05746">
        <ele>102.4</ele>
        <time>2024-11-14T09:23:12Z</time>
      </trkpt>
      <trkpt lat="48.72871" lon="2.05733">
        <ele>102.7</ele>
        <time>2024-11-14T09:23:19Z</time>
      </trkpt>
      <trkpt lat="48.72865" lon="2.05722">
        <ele>103.2</ele>
        <time>2024-11-14T09:23:26Z</time>
      </trkpt>
      <trkpt lat="48.72861" lon="2.0571">
        <ele>104.3</ele>
        <time>2024-11-14T09:23:33Z</time>
      </trkpt>
      <trkpt lat="48.72855" lon="2.05698">
        <ele>105.4</ele>
        <time>2024-11-14T09:23:41Z</time>
      </trkpt>
      <trkpt lat="48.7285" lon="2.05685">
        <ele>106.4</ele>
        <time>2024-11-14T09:23:49Z</time>
      </trkpt>
      <trkpt lat="48.72847" lon="2.05671">
        <ele>107.6</ele>
        <time>2024-11-14T09:24:00Z</time>
      </trkpt>
      <trkpt lat="48.72843" lon="2.05658">
        <ele>108.3</ele>
        <time>2024-11-14T09:24:09Z</time>
      </trkpt>
      <trkpt lat="48.72839" lon="2.05644">
        <ele>109</ele>
        <time>2024-11-14T09:24:17Z</time>
      </trkpt>
      <trkpt lat="48.72837" lon="2.0563">
        <ele>109.6</ele>
        <time>2024-11-14T09:24:24Z</time>
      </trkpt>
      <trkpt lat="48.72832" lon="2.05617">
        <ele>109.7</ele>
        <time>2024-11-14T09:24:33Z</time>
      </trkpt>
      <trkpt lat="48.72833" lon="2.05603">
        <ele>109.9</ele>
        <time>2024-11-14T09:24:43Z</time>
      </trkpt>
      <trkpt lat="48.72832" lon="2.05589">
        <ele>109.8</ele>
        <time>2024-11-14T09:24:50Z</time>
      </trkpt>
      <trkpt lat="48.72831" lon="2.05575">
        <ele>109.5</ele>
        <time>2024-11-14T09:24:57Z</time>
      </trkpt>
      <trkpt lat="48.7283" lon="2.05561">
        <ele>108.9</ele>
        <time>2024-11-14T09:25:04Z</time>
      </trkpt>
      <trkpt lat="48.72829" lon="2.05546">
        <ele>108.4</ele>
        <time>2024-11-14T09:25:13Z</time>
      </trkpt>
      <trkpt lat="48.72825" lon="2.05533">
        <ele>107.8</ele>
        <time>2024-11-14T09:25:20Z</time>
      </trkpt>
      <trkpt lat="48.72819" lon="2.05522">
        <ele>107.3</ele>
        <time>2024-11-14T09:25:27Z</time>
      </trkpt>
      <trkpt lat="48.72812" lon="2.05512">
        <ele>106.7</ele>
        <time>2024-11-14T09:25:33Z</time>
      </trkpt>
      <trkpt lat="48.72804" lon="2.05504">
        <ele>106.1</ele>
        <time>2024-11-14T09:25:40Z</time>
      </trkpt>
      <trkpt lat="48.72796" lon="2.05495">
        <ele>105.5</ele>
        <time>2024-11-14T09:25:47Z</time>
      </trkpt>
      <trkpt lat="48.72787" lon="2.05489">
        <ele>104.9</ele>
        <time>2024-11-14T09:25:53Z</time>
      </trkpt>
      <trkpt lat="48.72778" lon="2.05483">
        <ele>104.4</ele>
        <time>2024-11-14T09:25:59Z</time>
      </trkpt>
      <trkpt lat="48.7277" lon="2.05477">
        <ele>103.6</ele>
        <time>2024-11-14T09:26:06Z</time>
      </trkpt>
      <trkpt lat="48.72761" lon="2.05471">
        <ele>102.7</ele>
        <time>2024-11-14T09:26:16Z</time>
      </trkpt>
      <trkpt lat="48.72753" lon="2.05465">
        <ele>101.9</ele>
        <time>2024-11-14T09:26:22Z</time>
      </trkpt>
      <trkpt lat="48.72744" lon="2.05458">
        <ele>101.1</ele>
        <time>2024-11-14T09:26:28Z</time>
      </trkpt>
      <trkpt lat="48.72737" lon="2.05449">
        <ele>100.2</ele>
        <time>2024-11-14T09:26:35Z</time>
      </trkpt>
      <trkpt lat="48.72729" lon="2.05441">
        <ele>99.3</ele>
        <time>2024-11-14T09:26:42Z</time>
      </trkpt>
      <trkpt lat="48.72722" lon="2.05433">
        <ele>98.5</ele>
        <time>2024-11-14T09:26:51Z</time>
      </trkpt>
      <trkpt lat="48.72728" lon="2.05421">
        <ele>98.4</ele>
        <time>2024-11-14T09:27:15Z</time>
      </trkpt>
      <trkpt lat="48.72734" lon="2.05412">
        <ele>98.2</ele>
        <time>2024-11-14T09:27:23Z</time>
      </trkpt>
      <trkpt lat="48.72741" lon="2.05401">
        <ele>97.8</ele>
        <time>2024-11-14T09:27:33Z</time>
      </trkpt>
      <trkpt lat="48.72746" lon="2.05389">
        <ele>97</ele>
        <time>2024-11-14T09:27:58Z</time>
      </trkpt>
      <trkpt lat="48.72752" lon="2.05378">
        <ele>96.3</ele>
        <time>2024-11-14T09:28:09Z</time>
      </trkpt>
      <trkpt lat="48.72758" lon="2.05367">
        <ele>95.5</ele>
        <time>2024-11-14T09:28:16Z</time>
      </trkpt>
      <trkpt lat="48.72767" lon="2.05362">
        <ele>95.1</ele>
        <time>2024-11-14T09:28:25Z</time>
      </trkpt>
      <trkpt lat="48.72776" lon="2.05364">
        <ele>95.3</ele>
        <time>2024-11-14T09:28:32Z</time>
      </trkpt>
      <trkpt lat="48.72786" lon="2.05362">
        <ele>95.4</ele>
        <time>2024-11-14T09:28:40Z</time>
      </trkpt>
      <trkpt lat="48.72787" lon="2.05348">
        <ele>94.4</ele>
        <time>2024-11-14T09:28:47Z</time>
      </trkpt>
      <trkpt lat="48.72787" lon="2.05333">
        <ele>93.3</ele>
        <time>2024-11-14T09:28:56Z</time>
      </trkpt>
      <trkpt lat="48.72788" lon="2.05319">
        <ele>93.2</ele>
        <time>2024-11-14T09:29:08Z</time>
      </trkpt>
      <trkpt lat="48.72788" lon="2.05305">
        <ele>93</ele>
        <time>2024-11-14T09:29:16Z</time>
      </trkpt>
      <trkpt lat="48.72789" lon="2.05291">
        <ele>93</ele>
        <time>2024-11-14T09:29:24Z</time>
      </trkpt>
      <trkpt lat="48.72788" lon="2.05277">
        <ele>93</ele>
        <time>2024-11-14T09:29:32Z</time>
      </trkpt>
      <trkpt lat="48.7279" lon="2.05263">
        <ele>93.3</ele>
        <time>2024-11-14T09:29:40Z</time>
      </trkpt>
      <trkpt lat="48.72791" lon="2.05249">
        <ele>93.6</ele>
        <time>2024-11-14T09:29:49Z</time>
      </trkpt>
      <trkpt lat="48.72793" lon="2.05235">
        <ele>94.2</ele>
        <time>2024-11-14T09:29:58Z</time>
      </trkpt>
      <trkpt lat="48.72793" lon="2.05221">
        <ele>95</ele>
        <time>2024-11-14T09:30:06Z</time>
      </trkpt>
      <trkpt lat="48.72795" lon="2.05207">
        <ele>96.4</ele>
        <time>2024-11-14T09:30:15Z</time>
      </trkpt>
      <trkpt lat="48.72796" lon="2.05193">
        <ele>97.9</ele>
        <time>2024-11-14T09:30:25Z</time>
      </trkpt>
      <trkpt lat="48.72801" lon="2.0518">
        <ele>99.3</ele>
        <time>2024-11-14T09:30:34Z</time>
      </trkpt>
      <trkpt lat="48.72799" lon="2.05166">
        <ele>101.3</ele>
        <time>2024-11-14T09:30:44Z</time>
      </trkpt>
      <trkpt lat="48.72803" lon="2.05154">
        <ele>102.5</ele>
        <time>2024-11-14T09:30:52Z</time>
      </trkpt>
      <trkpt lat="48.72804" lon="2.0514">
        <ele>104</ele>
        <time>2024-11-14T09:31:03Z</time>
      </trkpt>
      <trkpt lat="48.72804" lon="2.05125">
        <ele>105.1</ele>
        <time>2024-11-14T09:31:13Z</time>
      </trkpt>
      <trkpt lat="48.72805" lon="2.0511">
        <ele>106.1</ele>
        <time>2024-11-14T09:31:23Z</time>
      </trkpt>
      <trkpt lat="48.72808" lon="2.05096">
        <ele>107</ele>
        <time>2024-11-14T09:31:31Z</time>
      </trkpt>
      <trkpt lat="48.72809" lon="2.05082">
        <ele>107.8</ele>
        <time>2024-11-14T09:31:42Z</time>
      </trkpt>
      <trkpt lat="48.72802" lon="2.05073">
        <ele>108.3</ele>
        <time>2024-11-14T09:32:32Z</time>
      </trkpt>
      <trkpt lat="48.72803" lon="2.05059">
        <ele>108.8</ele>
        <time>2024-11-14T09:32:39Z</time>
      </trkpt>
      <trkpt lat="48.72807" lon="2.05045">
        <ele>109</ele>
        <time>2024-11-14T09:32:49Z</time>
      </trkpt>
      <trkpt lat="48.72811" lon="2.05032">
        <ele>109.1</ele>
        <time>2024-11-14T09:33:08Z</time>
      </trkpt>
      <trkpt lat="48.72812" lon="2.05017">
        <ele>109.7</ele>
        <time>2024-11-14T09:33:16Z</time>
      </trkpt>
      <trkpt lat="48.72816" lon="2.05004">
        <ele>110.6</ele>
        <time>2024-11-14T09:33:25Z</time>
      </trkpt>
      <trkpt lat="48.72816" lon="2.0499">
        <ele>111.1</ele>
        <time>2024-11-14T09:33:32Z</time>
      </trkpt>
      <trkpt lat="48.72818" lon="2.04975">
        <ele>111.7</ele>
        <time>2024-11-14T09:33:39Z</time>
      </trkpt>
      <trkpt lat="48.72816" lon="2.04961">
        <ele>111.2</ele>
        <time>2024-11-14T09:33:46Z</time>
      </trkpt>
      <trkpt lat="48.72819" lon="2.04948">
        <ele>111</ele>
        <time>2024-11-14T09:33:53Z</time>
      </trkpt>
      <trkpt lat="48.72816" lon="2.04934">
        <ele>110</ele>
        <time>2024-11-14T09:34:12Z</time>
      </trkpt>
      <trkpt lat="48.72811" lon="2.04923">
        <ele>108.8</ele>
        <time>2024-11-14T09:34:19Z</time>
      </trkpt>
      <trkpt lat="48.72801" lon="2.04918">
        <ele>107.5</ele>
        <time>2024-11-14T09:34:27Z</time>
      </trkpt>
      <trkpt lat="48.72791" lon="2.04916">
        <ele>105.9</ele>
        <time>2024-11-14T09:34:35Z</time>
      </trkpt>
      <trkpt lat="48.72782" lon="2.04913">
        <ele>104.4</ele>
        <time>2024-11-14T09:34:43Z</time>
      </trkpt>
      <trkpt lat="48.72772" lon="2.04913">
        <ele>103.2</ele>
        <time>2024-11-14T09:34:49Z</time>
      </trkpt>
      <trkpt lat="48.72762" lon="2.0491">
        <ele>102</ele>
        <time>2024-11-14T09:34:56Z</time>
      </trkpt>
      <trkpt lat="48.72753" lon="2.04907">
        <ele>100.9</ele>
        <time>2024-11-14T09:35:02Z</time>
      </trkpt>
      <trkpt lat="48.72742" lon="2.04905">
        <ele>99.5</ele>
        <time>2024-11-14T09:35:08Z</time>
      </trkpt>
      <trkpt lat="48.72733" lon="2.049">
        <ele>98</ele>
        <time>2024-11-14T09:35:14Z</time>
      </trkpt>
      <trkpt lat="48.72724" lon="2.04896">
        <ele>96.5</ele>
        <time>2024-11-14T09:35:22Z</time>
      </trkpt>
      <trkpt lat="48.72723" lon="2.04881">
        <ele>96.1</ele>
        <time>2024-11-14T09:35:31Z</time>
      </trkpt>
      <trkpt lat="48.72731" lon="2.04873">
        <ele>97.1</ele>
        <time>2024-11-14T09:35:47Z</time>
      </trkpt>
      <trkpt lat="48.7274" lon="2.04865">
        <ele>98</ele>
        <time>2024-11-14T09:36:07Z</time>
      </trkpt>
      <trkpt lat="48.72749" lon="2.04858">
        <ele>98.7</ele>
        <time>2024-11-14T09:36:14Z</time>
      </trkpt>
      <trkpt lat="48.72757" lon="2.04852">
        <ele>98.9</ele>
        <time>2024-11-14T09:36:21Z</time>
      </trkpt>
      <trkpt lat="48.72766" lon="2.04844">
        <ele>99.3</ele>
        <time>2024-11-14T09:36:28Z</time>
      </trkpt>
      <trkpt lat="48.72774" lon="2.04837">
        <ele>99.8</ele>
        <time>2024-11-14T09:36:34Z</time>
      </trkpt>
      <trkpt lat="48.72782" lon="2.04831">
        <ele>100.6</ele>
        <time>2024-11-14T09:36:40Z</time>
      </trkpt>
      <trkpt lat="48.72789" lon="2.0482">
        <ele>101.4</ele>
        <time>2024-11-14T09:36:47Z</time>
      </trkpt>
      <trkpt lat="48.72796" lon="2.04809">
        <ele>102.3</ele>
        <time>2024-11-14T09:36:54Z</time>
      </trkpt>
      <trkpt lat="48.72801" lon="2.04795">
        <ele>103.4</ele>
        <time>2024-11-14T09:37:02Z</time>
      </trkpt>
      <trkpt lat="48.72805" lon="2.04782">
        <ele>104.8</ele>
        <time>2024-11-14T09:37:12Z</time>
      </trkpt>
      <trkpt lat="48.72805" lon="2.04768">
        <ele>105.1</ele>
        <time>2024-11-14T09:37:19Z</time>
      </trkpt>
      <trkpt lat="48.72803" lon="2.04754">
        <ele>105.3</ele>
        <time>2024-11-14T09:37:27Z</time>
      </trkpt>
      <trkpt lat="48.72802" lon="2.04739">
        <ele>105.9</ele>
        <time>2024-11-14T09:37:34Z</time>
      </trkpt>
      <trkpt lat="48.72799" lon="2.04725">
        <ele>106.2</ele>
        <time>2024-11-14T09:37:41Z</time>
      </trkpt>
      <trkpt lat="48.72798" lon="2.0471">
        <ele>106.9</ele>
        <time>2024-11-14T09:37:49Z</time>
      </trkpt>
      <trkpt lat="48.72798" lon="2.04695">
        <ele>108</ele>
        <time>2024-11-14T09:37:57Z</time>
      </trkpt>
      <trkpt lat="48.728" lon="2.04682">
        <ele>108.9</ele>
        <time>2024-11-14T09:38:04Z</time>
      </trkpt>
      <trkpt lat="48.72802" lon="2.04668">
        <ele>110</ele>
        <time>2024-11-14T09:38:11Z</time>
      </trkpt>
      <trkpt lat="48.72805" lon="2.04654">
        <ele>111.2</ele>
        <time>2024-11-14T09:38:18Z</time>
      </trkpt>
      <trkpt lat="48.72808" lon="2.04641">
        <ele>112.7</ele>
        <time>2024-11-14T09:38:26Z</time>
      </trkpt>
      <trkpt lat="48.72813" lon="2.04628">
        <ele>113.8</ele>
        <time>2024-11-14T09:38:34Z</time>
      </trkpt>
      <trkpt lat="48.72816" lon="2.04615">
        <ele>114.6</ele>
        <time>2024-11-14T09:38:41Z</time>
      </trkpt>
      <trkpt lat="48.7282" lon="2.04603">
        <ele>115.4</ele>
        <time>2024-11-14T09:38:47Z</time>
      </trkpt>
      <trkpt lat="48.72824" lon="2.04589">
        <ele>116</ele>
        <time>2024-11-14T09:38:54Z</time>
      </trkpt>
      <trkpt lat="48.72829" lon="2.04577">
        <ele>116.6</ele>
        <time>2024-11-14T09:39:01Z</time>
      </trkpt>
      <trkpt lat="48.72834" lon="2.04565">
        <ele>117</ele>
        <time>2024-11-14T09:39:08Z</time>
      </trkpt>
      <trkpt lat="48.7284" lon="2.04552">
        <ele>118.1</ele>
        <time>2024-11-14T09:39:16Z</time>
      </trkpt>
      <trkpt lat="48.72846" lon="2.04541">
        <ele>119.3</ele>
        <time>2024-11-14T09:39:24Z</time>
      </trkpt>
      <trkpt lat="48.72851" lon="2.04528">
        <ele>120.1</ele>
        <time>2024-11-14T09:39:32Z</time>
      </trkpt>
      <trkpt lat="48.72856" lon="2.04517">
        <ele>120.8</ele>
        <time>2024-11-14T09:39:42Z</time>
      </trkpt>
      <trkpt lat="48.72855" lon="2.04503">
        <ele>119.6</ele>
        <time>2024-11-14T09:40:53Z</time>
      </trkpt>
      <trkpt lat="48.72854" lon="2.04489">
        <ele>118.4</ele>
        <time>2024-11-14T09:41:01Z</time>
      </trkpt>
      <trkpt lat="48.72851" lon="2.04475">
        <ele>116.9</ele>
        <time>2024-11-14T09:41:09Z</time>
      </trkpt>
      <trkpt lat="48.72849" lon="2.04462">
        <ele>115.9</ele>
        <time>2024-11-14T09:41:22Z</time>
      </trkpt>
      <trkpt lat="48.72852" lon="2.04446">
        <ele>115.8</ele>
        <time>2024-11-14T09:41:30Z</time>
      </trkpt>
      <trkpt lat="48.72855" lon="2.04433">
        <ele>115.6</ele>
        <time>2024-11-14T09:41:38Z</time>
      </trkpt>
      <trkpt lat="48.72859" lon="2.04421">
        <ele>115.9</ele>
        <time>2024-11-14T09:41:45Z</time>
      </trkpt>
      <trkpt lat="48.72862" lon="2.04406">
        <ele>115.4</ele>
        <time>2024-11-14T09:41:51Z</time>
      </trkpt>
      <trkpt lat="48.72864" lon="2.04392">
        <ele>114.8</ele>
        <time>2024-11-14T09:41:57Z</time>
      </trkpt>
      <trkpt lat="48.72869" lon="2.0438">
        <ele>114.4</ele>
        <time>2024-11-14T09:42:04Z</time>
      </trkpt>
      <trkpt lat="48.72873" lon="2.04366">
        <ele>113.3</ele>
        <time>2024-11-14T09:42:11Z</time>
      </trkpt>
      <trkpt lat="48.72876" lon="2.04352">
        <ele>112.1</ele>
        <time>2024-11-14T09:42:18Z</time>
      </trkpt>
      <trkpt lat="48.7288" lon="2.04339">
        <ele>111.1</ele>
        <time>2024-11-14T09:42:26Z</time>
      </trkpt>
      <trkpt lat="48.72883" lon="2.04323">
        <ele>109.8</ele>
        <time>2024-11-14T09:42:32Z</time>
      </trkpt>
      <trkpt lat="48.72882" lon="2.04309">
        <ele>108.3</ele>
        <time>2024-11-14T09:42:38Z</time>
      </trkpt>
      <trkpt lat="48.72881" lon="2.04295">
        <ele>107.2</ele>
        <time>2024-11-14T09:42:44Z</time>
      </trkpt>
      <trkpt lat="48.72881" lon="2.0428">
        <ele>106.4</ele>
        <time>2024-11-14T09:42:51Z</time>
      </trkpt>
      <trkpt lat="48.72879" lon="2.04266">
        <ele>105</ele>
        <time>2024-11-14T09:42:56Z</time>
      </trkpt>
      <trkpt lat="48.72872" lon="2.04255">
        <ele>102.6</ele>
        <time>2024-11-14T09:43:04Z</time>
      </trkpt>
      <trkpt lat="48.72863" lon="2.04247">
        <ele>100.3</ele>
        <time>2024-11-14T09:43:10Z</time>
      </trkpt>
      <trkpt lat="48.72854" lon="2.0424">
        <ele>99.2</ele>
        <time>2024-11-14T09:43:16Z</time>
      </trkpt>
      <trkpt lat="48.72846" lon="2.04232">
        <ele>98.3</ele>
        <time>2024-11-14T09:43:23Z</time>
      </trkpt>
      <trkpt lat="48.72838" lon="2.04224">
        <ele>97.4</ele>
        <time>2024-11-14T09:43:29Z</time>
      </trkpt>
      <trkpt lat="48.7283" lon="2.04217">
        <ele>96.5</ele>
        <time>2024-11-14T09:43:36Z</time>
      </trkpt>
      <trkpt lat="48.72822" lon="2.0421">
        <ele>95.7</ele>
        <time>2024-11-14T09:43:44Z</time>
      </trkpt>
      <trkpt lat="48.72813" lon="2.04202">
        <ele>94.8</ele>
        <time>2024-11-14T09:43:54Z</time>
      </trkpt>
      <trkpt lat="48.72804" lon="2.04196">
        <ele>93.9</ele>
        <time>2024-11-14T09:44:02Z</time>
      </trkpt>
      <trkpt lat="48.72794" lon="2.0419">
        <ele>93.1</ele>
        <time>2024-11-14T09:44:08Z</time>
      </trkpt>
      <trkpt lat="48.72785" lon="2.04184">
        <ele>92.5</ele>
        <time>2024-11-14T09:44:15Z</time>
      </trkpt>
      <trkpt lat="48.72776" lon="2.04177">
        <ele>92</ele>
        <time>2024-11-14T09:44:22Z</time>
      </trkpt>
      <trkpt lat="48.72768" lon="2.0417">
        <ele>91.6</ele>
        <time>2024-11-14T09:44:29Z</time>
      </trkpt>
      <trkpt lat="48.72759" lon="2.04163">
        <ele>91.3</ele>
        <time>2024-11-14T09:44:40Z</time>
      </trkpt>
      <trkpt lat="48.7275" lon="2.04157">
        <ele>91</ele>
        <time>2024-11-14T09:44:49Z</time>
      </trkpt>
      <trkpt lat="48.72743" lon="2.04148">
        <ele>91.2</ele>
        <time>2024-11-14T09:44:56Z</time>
      </trkpt>
      <trkpt lat="48.72734" lon="2.0414">
        <ele>91.6</ele>
        <time>2024-11-14T09:45:03Z</time>
      </trkpt>
      <trkpt lat="48.72725" lon="2.04134">
        <ele>91.9</ele>
        <time>2024-11-14T09:45:10Z</time>
      </trkpt>
      <trkpt lat="48.72717" lon="2.04126">
        <ele>92.4</ele>
        <time>2024-11-14T09:45:18Z</time>
      </trkpt>
      <trkpt lat="48.7271" lon="2.04117">
        <ele>92.9</ele>
        <time>2024-11-14T09:45:25Z</time>
      </trkpt>
      <trkpt lat="48.72701" lon="2.04112">
        <ele>93.6</ele>
        <time>2024-11-14T09:45:32Z</time>
      </trkpt>
      <trkpt lat="48.72692" lon="2.04108">
        <ele>94.3</ele>
        <time>2024-11-14T09:45:39Z</time>
      </trkpt>
      <trkpt lat="48.72683" lon="2.04102">
        <ele>95.2</ele>
        <time>2024-11-14T09:45:46Z</time>
      </trkpt>
      <trkpt lat="48.72675" lon="2.04096">
        <ele>96.1</ele>
        <time>2024-11-14T09:46:23Z</time>
      </trkpt>
      <trkpt lat="48.72673" lon="2.04081">
        <ele>96.3</ele>
        <time>2024-11-14T09:46:32Z</time>
      </trkpt>
      <trkpt lat="48.72676" lon="2.04068">
        <ele>95.6</ele>
        <time>2024-11-14T09:46:40Z</time>
      </trkpt>
      <trkpt lat="48.7268" lon="2.04053">
        <ele>95.1</ele>
        <time>2024-11-14T09:46:47Z</time>
      </trkpt>
      <trkpt lat="48.72682" lon="2.04037">
        <ele>95.6</ele>
        <time>2024-11-14T09:46:55Z</time>
      </trkpt>
      <trkpt lat="48.72686" lon="2.04024">
        <ele>95.8</ele>
        <time>2024-11-14T09:47:01Z</time>
      </trkpt>
      <trkpt lat="48.72688" lon="2.0401">
        <ele>96.1</ele>
        <time>2024-11-14T09:47:08Z</time>
      </trkpt>
      <trkpt lat="48.72689" lon="2.03995">
        <ele>96.6</ele>
        <time>2024-11-14T09:47:15Z</time>
      </trkpt>
      <trkpt lat="48.7269" lon="2.03981">
        <ele>97.2</ele>
        <time>2024-11-14T09:47:22Z</time>
      </trkpt>
      <trkpt lat="48.72691" lon="2.03966">
        <ele>97.8</ele>
        <time>2024-11-14T09:47:29Z</time>
      </trkpt>
      <trkpt lat="48.72686" lon="2.03954">
        <ele>99.2</ele>
        <time>2024-11-14T09:47:37Z</time>
      </trkpt>
      <trkpt lat="48.72679" lon="2.03944">
        <ele>100.7</ele>
        <time>2024-11-14T09:47:45Z</time>
      </trkpt>
      <trkpt lat="48.7267" lon="2.03938">
        <ele>102.1</ele>
        <time>2024-11-14T09:47:53Z</time>
      </trkpt>
      <trkpt lat="48.72664" lon="2.03927">
        <ele>103.5</ele>
        <time>2024-11-14T09:48:01Z</time>
      </trkpt>
      <trkpt lat="48.72659" lon="2.03913">
        <ele>104.9</ele>
        <time>2024-11-14T09:48:10Z</time>
      </trkpt>
      <trkpt lat="48.72654" lon="2.03902">
        <ele>106.1</ele>
        <time>2024-11-14T09:48:17Z</time>
      </trkpt>
      <trkpt lat="48.7265" lon="2.0389">
        <ele>107.4</ele>
        <time>2024-11-14T09:48:25Z</time>
      </trkpt>
      <trkpt lat="48.72642" lon="2.03882">
        <ele>108.8</ele>
        <time>2024-11-14T09:48:34Z</time>
      </trkpt>
      <trkpt lat="48.72634" lon="2.03874">
        <ele>110.3</ele>
        <time>2024-11-14T09:48:46Z</time>
      </trkpt>
      <trkpt lat="48.72629" lon="2.03861">
        <ele>111.4</ele>
        <time>2024-11-14T09:48:57Z</time>
      </trkpt>
      <trkpt lat="48.72622" lon="2.03852">
        <ele>112.6</ele>
        <time>2024-11-14T09:49:07Z</time>
      </trkpt>
      <trkpt lat="48.72616" lon="2.03842">
        <ele>113.9</ele>
        <time>2024-11-14T09:49:17Z</time>
      </trkpt>
      <trkpt lat="48.72608" lon="2.03832">
        <ele>115.3</ele>
        <time>2024-11-14T09:49:26Z</time>
      </trkpt>
      <trkpt lat="48.72601" lon="2.03823">
        <ele>116.1</ele>
        <time>2024-11-14T09:49:36Z</time>
      </trkpt>
      <trkpt lat="48.72594" lon="2.03816">
        <ele>117.5</ele>
        <time>2024-11-14T09:49:45Z</time>
      </trkpt>
      <trkpt lat="48.72587" lon="2.03807">
        <ele>119.2</ele>
        <time>2024-11-14T09:50:19Z</time>
      </trkpt>
      <trkpt lat="48.72579" lon="2.03799">
        <ele>121</ele>
        <time>2024-11-14T09:50:30Z</time>
      </trkpt>
      <trkpt lat="48.7257" lon="2.03794">
        <ele>122.9</ele>
        <time>2024-11-14T09:50:39Z</time>
      </trkpt>
      <trkpt lat="48.72561" lon="2.03794">
        <ele>124.9</ele>
        <time>2024-11-14T09:50:50Z</time>
      </trkpt>
      <trkpt lat="48.72552" lon="2.03787">
        <ele>126.8</ele>
        <time>2024-11-14T09:51:01Z</time>
      </trkpt>
      <trkpt lat="48.72543" lon="2.03792">
        <ele>129.1</ele>
        <time>2024-11-14T09:51:16Z</time>
      </trkpt>
      <trkpt lat="48.72536" lon="2.03801">
        <ele>131</ele>
        <time>2024-11-14T09:51:26Z</time>
      </trkpt>
      <trkpt lat="48.72526" lon="2.03799">
        <ele>133.4</ele>
        <time>2024-11-14T09:51:38Z</time>
      </trkpt>
      <trkpt lat="48.72517" lon="2.03794">
        <ele>135.7</ele>
        <time>2024-11-14T09:51:47Z</time>
      </trkpt>
      <trkpt lat="48.72508" lon="2.03793">
        <ele>138.1</ele>
        <time>2024-11-14T09:51:56Z</time>
      </trkpt>
      <trkpt lat="48.72499" lon="2.03794">
        <ele>140.5</ele>
        <time>2024-11-14T09:52:05Z</time>
      </trkpt>
      <trkpt lat="48.72489" lon="2.03794">
        <ele>142.8</ele>
        <time>2024-11-14T09:52:18Z</time>
      </trkpt>
      <trkpt lat="48.72482" lon="2.03804">
        <ele>145.3</ele>
        <time>2024-11-14T09:52:29Z</time>
      </trkpt>
      <trkpt lat="48.72478" lon="2.03817">
        <ele>147.2</ele>
        <time>2024-11-14T09:52:42Z</time>
      </trkpt>
      <trkpt lat="48.72471" lon="2.03826">
        <ele>149.7</ele>
        <time>2024-11-14T09:52:53Z</time>
      </trkpt>
      <trkpt lat="48.72462" lon="2.03823">
        <ele>151.1</ele>
        <time>2024-11-14T09:53:08Z</time>
      </trkpt>
      <trkpt lat="48.72459" lon="2.03808">
        <ele>150.7</ele>
        <time>2024-11-14T09:53:17Z</time>
      </trkpt>
      <trkpt lat="48.7245" lon="2.03801">
        <ele>151.6</ele>
        <time>2024-11-14T09:53:27Z</time>
      </trkpt>
      <trkpt lat="48.72441" lon="2.038">
        <ele>153</ele>
        <time>2024-11-14T09:53:37Z</time>
      </trkpt>
      <trkpt lat="48.72435" lon="2.0381">
        <ele>154.4</ele>
        <time>2024-11-14T09:53:49Z</time>
      </trkpt>
      <trkpt lat="48.72426" lon="2.03816">
        <ele>155.5</ele>
        <time>2024-11-14T09:57:38Z</time>
      </trkpt>
      <trkpt lat="48.72422" lon="2.0383">
        <ele>156.5</ele>
        <time>2024-11-14T09:57:48Z</time>
      </trkpt>
      <trkpt lat="48.72414" lon="2.03837">
        <ele>157.3</ele>
        <time>2024-11-14T09:57:57Z</time>
      </trkpt>
      <trkpt lat="48.72405" lon="2.03837">
        <ele>157.9</ele>
        <time>2024-11-14T09:58:05Z</time>
      </trkpt>
      <trkpt lat="48.72395" lon="2.03837">
        <ele>158.6</ele>
        <time>2024-11-14T09:58:12Z</time>
      </trkpt>
      <trkpt lat="48.72385" lon="2.03835">
        <ele>159</ele>
        <time>2024-11-14T09:58:19Z</time>
      </trkpt>
      <trkpt lat="48.72376" lon="2.0383">
        <ele>158.9</ele>
        <time>2024-11-14T09:58:26Z</time>
      </trkpt>
      <trkpt lat="48.72366" lon="2.03827">
        <ele>159</ele>
        <time>2024-11-14T09:58:33Z</time>
      </trkpt>
      <trkpt lat="48.72357" lon="2.03823">
        <ele>159</ele>
        <time>2024-11-14T09:58:41Z</time>
      </trkpt>
      <trkpt lat="48.72348" lon="2.03818">
        <ele>159</ele>
        <time>2024-11-14T09:58:50Z</time>
      </trkpt>
      <trkpt lat="48.72339" lon="2.03815">
        <ele>159</ele>
        <time>2024-11-14T09:59:09Z</time>
      </trkpt>
      <trkpt lat="48.72328" lon="2.03813">
        <ele>159.2</ele>
        <time>2024-11-14T09:59:17Z</time>
      </trkpt>
      <trkpt lat="48.72319" lon="2.03812">
        <ele>159.5</ele>
        <time>2024-11-14T09:59:25Z</time>
      </trkpt>
      <trkpt lat="48.72309" lon="2.03809">
        <ele>159.9</ele>
        <time>2024-11-14T09:59:33Z</time>
      </trkpt>
      <trkpt lat="48.72299" lon="2.03807">
        <ele>160.2</ele>
        <time>2024-11-14T09:59:40Z</time>
      </trkpt>
      <trkpt lat="48.7229" lon="2.03804">
        <ele>160.5</ele>
        <time>2024-11-14T09:59:46Z</time>
      </trkpt>
      <trkpt lat="48.72281" lon="2.03802">
        <ele>160.9</ele>
        <time>2024-11-14T09:59:52Z</time>
      </trkpt>
      <trkpt lat="48.72271" lon="2.03802">
        <ele>161.2</ele>
        <time>2024-11-14T09:59:59Z</time>
      </trkpt>
      <trkpt lat="48.72262" lon="2.03807">
        <ele>161.6</ele>
        <time>2024-11-14T10:00:06Z</time>
      </trkpt>
      <trkpt lat="48.72255" lon="2.03817">
        <ele>161.8</ele>
        <time>2024-11-14T10:00:14Z</time>
      </trkpt>
      <trkpt lat="48.72248" lon="2.03827">
        <ele>162</ele>
        <time>2024-11-14T10:00:21Z</time>
      </trkpt>
      <trkpt lat="48.72243" lon="2.03839">
        <ele>161.8</ele>
        <time>2024-11-14T10:00:29Z</time>
      </trkpt>
      <trkpt lat="48.72237" lon="2.0385">
        <ele>161.7</ele>
        <time>2024-11-14T10:00:35Z</time>
      </trkpt>
      <trkpt lat="48.72231" lon="2.03862">
        <ele>161.7</ele>
        <time>2024-11-14T10:00:41Z</time>
      </trkpt>
      <trkpt lat="48.72224" lon="2.03874">
        <ele>161.9</ele>
        <time>2024-11-14T10:00:48Z</time>
      </trkpt>
      <trkpt lat="48.72216" lon="2.03884">
        <ele>162</ele>
        <time>2024-11-14T10:00:55Z</time>
      </trkpt>
      <trkpt lat="48.72209" lon="2.03892">
        <ele>162</ele>
        <time>2024-11-14T10:01:03Z</time>
      </trkpt>
      <trkpt lat="48.72202" lon="2.03904">
        <ele>162</ele>
        <time>2024-11-14T10:01:09Z</time>
      </trkpt>
      <trkpt lat="48.72198" lon="2.03916">
        <ele>162</ele>
        <time>2024-11-14T10:01:16Z</time>
      </trkpt>
      <trkpt lat="48.72196" lon="2.03931">
        <ele>162</ele>
        <time>2024-11-14T10:01:25Z</time>
      </trkpt>
      <trkpt lat="48.72195" lon="2.03946">
        <ele>162</ele>
        <time>2024-11-14T10:01:33Z</time>
      </trkpt>
      <trkpt lat="48.72194" lon="2.03961">
        <ele>162</ele>
        <time>2024-11-14T10:01:40Z</time>
      </trkpt>
      <trkpt lat="48.72194" lon="2.03976">
        <ele>161.9</ele>
        <time>2024-11-14T10:01:47Z</time>
      </trkpt>
      <trkpt lat="48.72185" lon="2.03983">
        <ele>161.8</ele>
        <time>2024-11-14T10:01:54Z</time>
      </trkpt>
      <trkpt lat="48.72175" lon="2.03981">
        <ele>161.9</ele>
        <time>2024-11-14T10:02:00Z</time>
      </trkpt>
      <trkpt lat="48.72165" lon="2.03979">
        <ele>162</ele>
        <time>2024-11-14T10:02:06Z</time>
      </trkpt>
      <trkpt lat="48.72156" lon="2.03977">
        <ele>162</ele>
        <time>2024-11-14T10:02:12Z</time>
      </trkpt>
      <trkpt lat="48.72147" lon="2.03974">
        <ele>162</ele>
        <time>2024-11-14T10:02:18Z</time>
      </trkpt>
      <trkpt lat="48.72137" lon="2.03969">
        <ele>162.1</ele>
        <time>2024-11-14T10:02:25Z</time>
      </trkpt>
      <trkpt lat="48.72128" lon="2.03964">
        <ele>162.4</ele>
        <time>2024-11-14T10:02:32Z</time>
      </trkpt>
      <trkpt lat="48.72118" lon="2.0396">
        <ele>162.8</ele>
        <time>2024-11-14T10:02:39Z</time>
      </trkpt>
      <trkpt lat="48.72108" lon="2.03955">
        <ele>163</ele>
        <time>2024-11-14T10:02:46Z</time>
      </trkpt>
      <trkpt lat="48.72098" lon="2.03952">
        <ele>163</ele>
        <time>2024-11-14T10:02:53Z</time>
      </trkpt>
      <trkpt lat="48.72089" lon="2.03948">
        <ele>163</ele>
        <time>2024-11-14T10:03:00Z</time>
      </trkpt>
      <trkpt lat="48.72079" lon="2.03944">
        <ele>163.2</ele>
        <time>2024-11-14T10:03:07Z</time>
      </trkpt>
      <trkpt lat="48.72069" lon="2.03941">
        <ele>163.5</ele>
        <time>2024-11-14T10:03:14Z</time>
      </trkpt>
      <trkpt lat="48.7206" lon="2.03938">
        <ele>163.8</ele>
        <time>2024-11-14T10:03:21Z</time>
      </trkpt>
      <trkpt lat="48.7205" lon="2.03934">
        <ele>164.2</ele>
        <time>2024-11-14T10:03:28Z</time>
      </trkpt>
      <trkpt lat="48.72041" lon="2.0393">
        <ele>164.5</ele>
        <time>2024-11-14T10:03:35Z</time>
      </trkpt>
      <trkpt lat="48.72031" lon="2.03926">
        <ele>164.9</ele>
        <time>2024-11-14T10:03:42Z</time>
      </trkpt>
      <trkpt lat="48.72021" lon="2.03922">
        <ele>165</ele>
        <time>2024-11-14T10:03:49Z</time>
      </trkpt>
      <trkpt lat="48.72011" lon="2.03918">
        <ele>165</ele>
        <time>2024-11-14T10:03:56Z</time>
      </trkpt>
      <trkpt lat="48.72001" lon="2.03914">
        <ele>165.1</ele>
        <time>2024-11-14T10:04:03Z</time>
      </trkpt>
      <trkpt lat="48.71992" lon="2.0391">
        <ele>165.5</ele>
        <time>2024-11-14T10:04:10Z</time>
      </trkpt>
      <trkpt lat="48.71982" lon="2.03907">
        <ele>165.8</ele>
        <time>2024-11-14T10:04:17Z</time>
      </trkpt>
      <trkpt lat="48.71973" lon="2.03905">
        <ele>166</ele>
        <time>2024-11-14T10:04:46Z</time>
      </trkpt>
      <trkpt lat="48.71964" lon="2.039">
        <ele>166.3</ele>
        <time>2024-11-14T10:04:54Z</time>
      </trkpt>
      <trkpt lat="48.71955" lon="2.03897">
        <ele>166.6</ele>
        <time>2024-11-14T10:05:02Z</time>
      </trkpt>
      <trkpt lat="48.71945" lon="2.03892">
        <ele>167</ele>
        <time>2024-11-14T10:05:09Z</time>
      </trkpt>
      <trkpt lat="48.71936" lon="2.03889">
        <ele>167</ele>
        <time>2024-11-14T10:05:16Z</time>
      </trkpt>
      <trkpt lat="48.71926" lon="2.03885">
        <ele>167.1</ele>
        <time>2024-11-14T10:05:24Z</time>
      </trkpt>
      <trkpt lat="48.71916" lon="2.03882">
        <ele>167.3</ele>
        <time>2024-11-14T10:05:33Z</time>
      </trkpt>
      <trkpt lat="48.71907" lon="2.03878">
        <ele>167.6</ele>
        <time>2024-11-14T10:05:41Z</time>
      </trkpt>
      <trkpt lat="48.71897" lon="2.03874">
        <ele>167.9</ele>
        <time>2024-11-14T10:05:49Z</time>
      </trkpt>
      <trkpt lat="48.71888" lon="2.0387">
        <ele>168</ele>
        <time>2024-11-14T10:05:56Z</time>
      </trkpt>
      <trkpt lat="48.71879" lon="2.03866">
        <ele>168.3</ele>
        <time>2024-11-14T10:06:04Z</time>
      </trkpt>
      <trkpt lat="48.7187" lon="2.03863">
        <ele>168.6</ele>
        <time>2024-11-14T10:06:11Z</time>
      </trkpt>
      <trkpt lat="48.71861" lon="2.03859">
        <ele>169</ele>
        <time>2024-11-14T10:06:18Z</time>
      </trkpt>
      <trkpt lat="48.71852" lon="2.03856">
        <ele>169</ele>
        <time>2024-11-14T10:06:25Z</time>
      </trkpt>
      <trkpt lat="48.71843" lon="2.03853">
        <ele>169</ele>
        <time>2024-11-14T10:06:32Z</time>
      </trkpt>
      <trkpt lat="48.71837" lon="2.03864">
        <ele>169</ele>
        <time>2024-11-14T10:06:40Z</time>
      </trkpt>
      <trkpt lat="48.71837" lon="2.03879">
        <ele>168.9</ele>
        <time>2024-11-14T10:06:48Z</time>
      </trkpt>
      <trkpt lat="48.71837" lon="2.03893">
        <ele>168.9</ele>
        <time>2024-11-14T10:06:57Z</time>
      </trkpt>
      <trkpt lat="48.71836" lon="2.03907">
        <ele>168.9</ele>
        <time>2024-11-14T10:07:05Z</time>
      </trkpt>
      <trkpt lat="48.71833" lon="2.03921">
        <ele>169</ele>
        <time>2024-11-14T10:07:13Z</time>
      </trkpt>
      <trkpt lat="48.71826" lon="2.03931">
        <ele>169</ele>
        <time>2024-11-14T10:07:21Z</time>
      </trkpt>
      <trkpt lat="48.71817" lon="2.03934">
        <ele>169</ele>
        <time>2024-11-14T10:07:28Z</time>
      </trkpt>
      <trkpt lat="48.71808" lon="2.03934">
        <ele>169</ele>
        <time>2024-11-14T10:07:35Z</time>
      </trkpt>
      <trkpt lat="48.71799" lon="2.03935">
        <ele>169.2</ele>
        <time>2024-11-14T10:07:42Z</time>
      </trkpt>
      <trkpt lat="48.71789" lon="2.03934">
        <ele>169.6</ele>
        <time>2024-11-14T10:07:50Z</time>
      </trkpt>
      <trkpt lat="48.71779" lon="2.03934">
        <ele>169.9</ele>
        <time>2024-11-14T10:07:57Z</time>
      </trkpt>
      <trkpt lat="48.7177" lon="2.03934">
        <ele>170</ele>
        <time>2024-11-14T10:08:04Z</time>
      </trkpt>
      <trkpt lat="48.71761" lon="2.03933">
        <ele>170</ele>
        <time>2024-11-14T10:08:11Z</time>
      </trkpt>
      <trkpt lat="48.71751" lon="2.03933">
        <ele>170</ele>
        <time>2024-11-14T10:08:19Z</time>
      </trkpt>
      <trkpt lat="48.71741" lon="2.03932">
        <ele>170</ele>
        <time>2024-11-14T10:08:26Z</time>
      </trkpt>
      <trkpt lat="48.71731" lon="2.03931">
        <ele>170</ele>
        <time>2024-11-14T10:08:33Z</time>
      </trkpt>
      <trkpt lat="48.71721" lon="2.03931">
        <ele>170</ele>
        <time>2024-11-14T10:08:40Z</time>
      </trkpt>
      <trkpt lat="48.71712" lon="2.03931">
        <ele>170</ele>
        <time>2024-11-14T10:08:47Z</time>
      </trkpt>
      <trkpt lat="48.71702" lon="2.0393">
        <ele>170</ele>
        <time>2024-11-14T10:08:54Z</time>
      </trkpt>
      <trkpt lat="48.71692" lon="2.03929">
        <ele>169.9</ele>
        <time>2024-11-14T10:09:01Z</time>
      </trkpt>
      <trkpt lat="48.71683" lon="2.03929">
        <ele>169.6</ele>
        <time>2024-11-14T10:09:08Z</time>
      </trkpt>
      <trkpt lat="48.71673" lon="2.03929">
        <ele>169.2</ele>
        <time>2024-11-14T10:09:15Z</time>
      </trkpt>
      <trkpt lat="48.71663" lon="2.0393">
        <ele>169</ele>
        <time>2024-11-14T10:09:22Z</time>
      </trkpt>
      <trkpt lat="48.71653" lon="2.0393">
        <ele>169</ele>
        <time>2024-11-14T10:09:29Z</time>
      </trkpt>
      <trkpt lat="48.71643" lon="2.0393">
        <ele>169</ele>
        <time>2024-11-14T10:09:36Z</time>
      </trkpt>
      <trkpt lat="48.71633" lon="2.0393">
        <ele>168.8</ele>
        <time>2024-11-14T10:09:43Z</time>
      </trkpt>
      <trkpt lat="48.71623" lon="2.0393">
        <ele>168.4</ele>
        <time>2024-11-14T10:09:51Z</time>
      </trkpt>
      <trkpt lat="48.71613" lon="2.0393">
        <ele>168.1</ele>
        <time>2024-11-14T10:09:59Z</time>
      </trkpt>
      <trkpt lat="48.71603" lon="2.03932">
        <ele>167.7</ele>
        <time>2024-11-14T10:10:06Z</time>
      </trkpt>
      <trkpt lat="48.71594" lon="2.03934">
        <ele>167.4</ele>
        <time>2024-11-14T10:10:13Z</time>
      </trkpt>
      <trkpt lat="48.71584" lon="2.03938">
        <ele>167</ele>
        <time>2024-11-14T10:10:21Z</time>
      </trkpt>
      <trkpt lat="48.71575" lon="2.03942">
        <ele>167</ele>
        <time>2024-11-14T10:10:28Z</time>
      </trkpt>
      <trkpt lat="48.71566" lon="2.03947">
        <ele>167</ele>
        <time>2024-11-14T10:10:35Z</time>
      </trkpt>
      <trkpt lat="48.71557" lon="2.03952">
        <ele>167</ele>
        <time>2024-11-14T10:10:43Z</time>
      </trkpt>
      <trkpt lat="48.71548" lon="2.03956">
        <ele>166.7</ele>
        <time>2024-11-14T10:10:52Z</time>
      </trkpt>
      <trkpt lat="48.71538" lon="2.0396">
        <ele>166.4</ele>
        <time>2024-11-14T10:10:59Z</time>
      </trkpt>
      <trkpt lat="48.71528" lon="2.03964">
        <ele>166</ele>
        <time>2024-11-14T10:11:07Z</time>
      </trkpt>
      <trkpt lat="48.7152" lon="2.03969">
        <ele>165.7</ele>
        <time>2024-11-14T10:11:14Z</time>
      </trkpt>
      <trkpt lat="48.71511" lon="2.03972">
        <ele>165.4</ele>
        <time>2024-11-14T10:11:21Z</time>
      </trkpt>
      <trkpt lat="48.71501" lon="2.03975">
        <ele>165.1</ele>
        <time>2024-11-14T10:11:29Z</time>
      </trkpt>
      <trkpt lat="48.71491" lon="2.03981">
        <ele>165.2</ele>
        <time>2024-11-14T10:11:37Z</time>
      </trkpt>
      <trkpt lat="48.71482" lon="2.03985">
        <ele>165.2</ele>
        <time>2024-11-14T10:11:44Z</time>
      </trkpt>
      <trkpt lat="48.71473" lon="2.03989">
        <ele>165</ele>
        <time>2024-11-14T10:11:52Z</time>
      </trkpt>
      <trkpt lat="48.71464" lon="2.03994">
        <ele>164.7</ele>
        <time>2024-11-14T10:11:59Z</time>
      </trkpt>
      <trkpt lat="48.71455" lon="2.03998">
        <ele>164.4</ele>
        <time>2024-11-14T10:12:06Z</time>
      </trkpt>
      <trkpt lat="48.71445" lon="2.04001">
        <ele>164</ele>
        <time>2024-11-14T10:12:14Z</time>
      </trkpt>
      <trkpt lat="48.71436" lon="2.04005">
        <ele>164</ele>
        <time>2024-11-14T10:12:21Z</time>
      </trkpt>
      <trkpt lat="48.71426" lon="2.04006">
        <ele>164</ele>
        <time>2024-11-14T10:12:29Z</time>
      </trkpt>
      <trkpt lat="48.71416" lon="2.04003">
        <ele>164</ele>
        <time>2024-11-14T10:12:36Z</time>
      </trkpt>
      <trkpt lat="48.71408" lon="2.03996">
        <ele>163.7</ele>
        <time>2024-11-14T10:12:44Z</time>
      </trkpt>
      <trkpt lat="48.71399" lon="2.03995">
        <ele>163.4</ele>
        <time>2024-11-14T10:12:52Z</time>
      </trkpt>
      <trkpt lat="48.7139" lon="2.03998">
        <ele>163</ele>
        <time>2024-11-14T10:12:59Z</time>
      </trkpt>
      <trkpt lat="48.7138" lon="2.03999">
        <ele>163</ele>
        <time>2024-11-14T10:13:07Z</time>
      </trkpt>
      <trkpt lat="48.71371" lon="2.03995">
        <ele>162.9</ele>
        <time>2024-11-14T10:13:15Z</time>
      </trkpt>
      <trkpt lat="48.71362" lon="2.03994">
        <ele>162.8</ele>
        <time>2024-11-14T10:13:23Z</time>
      </trkpt>
      <trkpt lat="48.71352" lon="2.03997">
        <ele>162.5</ele>
        <time>2024-11-14T10:13:30Z</time>
      </trkpt>
      <trkpt lat="48.71342" lon="2.03996">
        <ele>162.2</ele>
        <time>2024-11-14T10:13:37Z</time>
      </trkpt>
      <trkpt lat="48.71333" lon="2.03999">
        <ele>161.9</ele>
        <time>2024-11-14T10:13:44Z</time>
      </trkpt>
      <trkpt lat="48.71324" lon="2.04">
        <ele>161.3</ele>
        <time>2024-11-14T10:13:52Z</time>
      </trkpt>
      <trkpt lat="48.71314" lon="2.04004">
        <ele>160.7</ele>
        <time>2024-11-14T10:14:00Z</time>
      </trkpt>
      <trkpt lat="48.71305" lon="2.04002">
        <ele>160.1</ele>
        <time>2024-11-14T10:14:08Z</time>
      </trkpt>
      <trkpt lat="48.71296" lon="2.04001">
        <ele>159.7</ele>
        <time>2024-11-14T10:14:15Z</time>
      </trkpt>
      <trkpt lat="48.71287" lon="2.04003">
        <ele>159.4</ele>
        <time>2024-11-14T10:14:21Z</time>
      </trkpt>
      <trkpt lat="48.71279" lon="2.0401">
        <ele>159.1</ele>
        <time>2024-11-14T10:14:27Z</time>
      </trkpt>
      <trkpt lat="48.71269" lon="2.04013">
        <ele>158.7</ele>
        <time>2024-11-14T10:14:34Z</time>
      </trkpt>
      <trkpt lat="48.71262" lon="2.04022">
        <ele>158.4</ele>
        <time>2024-11-14T10:14:41Z</time>
      </trkpt>
      <trkpt lat="48.71254" lon="2.04032">
        <ele>158.3</ele>
        <time>2024-11-14T10:14:48Z</time>
      </trkpt>
      <trkpt lat="48.71247" lon="2.04044">
        <ele>158.3</ele>
        <time>2024-11-14T10:14:56Z</time>
      </trkpt>
      <trkpt lat="48.71239" lon="2.04051">
        <ele>158</ele>
        <time>2024-11-14T10:15:03Z</time>
      </trkpt>
      <trkpt lat="48.71231" lon="2.04059">
        <ele>157.7</ele>
        <time>2024-11-14T10:15:12Z</time>
      </trkpt>
      <trkpt lat="48.71223" lon="2.04067">
        <ele>157.5</ele>
        <time>2024-11-14T10:15:19Z</time>
      </trkpt>
      <trkpt lat="48.71215" lon="2.04076">
        <ele>157.1</ele>
        <time>2024-11-14T10:15:27Z</time>
      </trkpt>
      <trkpt lat="48.71208" lon="2.04088">
        <ele>157.2</ele>
        <time>2024-11-14T10:15:34Z</time>
      </trkpt>
      <trkpt lat="48.712" lon="2.04098">
        <ele>157.4</ele>
        <time>2024-11-14T10:15:41Z</time>
      </trkpt>
      <trkpt lat="48.71196" lon="2.04111">
        <ele>158</ele>
        <time>2024-11-14T10:15:48Z</time>
      </trkpt>
      <trkpt lat="48.7119" lon="2.04121">
        <ele>158.1</ele>
        <time>2024-11-14T10:15:56Z</time>
      </trkpt>
      <trkpt lat="48.71182" lon="2.0413">
        <ele>158.1</ele>
        <time>2024-11-14T10:16:04Z</time>
      </trkpt>
      <trkpt lat="48.71173" lon="2.04135">
        <ele>158</ele>
        <time>2024-11-14T10:16:10Z</time>
      </trkpt>
      <trkpt lat="48.71163" lon="2.04139">
        <ele>157.8</ele>
        <time>2024-11-14T10:16:16Z</time>
      </trkpt>
      <trkpt lat="48.71153" lon="2.04135">
        <ele>156.8</ele>
        <time>2024-11-14T10:16:22Z</time>
      </trkpt>
      <trkpt lat="48.71143" lon="2.04137">
        <ele>156.2</ele>
        <time>2024-11-14T10:16:28Z</time>
      </trkpt>
      <trkpt lat="48.71134" lon="2.04141">
        <ele>155.8</ele>
        <time>2024-11-14T10:16:35Z</time>
      </trkpt>
      <trkpt lat="48.71125" lon="2.04145">
        <ele>155.6</ele>
        <time>2024-11-14T10:16:44Z</time>
      </trkpt>
      <trkpt lat="48.71115" lon="2.04146">
        <ele>155.4</ele>
        <time>2024-11-14T10:16:50Z</time>
      </trkpt>
      <trkpt lat="48.71105" lon="2.04148">
        <ele>155.1</ele>
        <time>2024-11-14T10:16:57Z</time>
      </trkpt>
      <trkpt lat="48.71096" lon="2.04144">
        <ele>154.6</ele>
        <time>2024-11-14T10:17:07Z</time>
      </trkpt>
      <trkpt lat="48.71087" lon="2.04141">
        <ele>154.2</ele>
        <time>2024-11-14T10:17:16Z</time>
      </trkpt>
      <trkpt lat="48.71078" lon="2.04133">
        <ele>153.2</ele>
        <time>2024-11-14T10:17:24Z</time>
      </trkpt>
      <trkpt lat="48.7107" lon="2.04128">
        <ele>152.4</ele>
        <time>2024-11-14T10:17:30Z</time>
      </trkpt>
      <trkpt lat="48.71061" lon="2.04122">
        <ele>151.5</ele>
        <time>2024-11-14T10:17:36Z</time>
      </trkpt>
      <trkpt lat="48.71051" lon="2.04116">
        <ele>150.3</ele>
        <time>2024-11-14T10:17:43Z</time>
      </trkpt>
      <trkpt lat="48.71042" lon="2.04118">
        <ele>150.1</ele>
        <time>2024-11-14T10:17:53Z</time>
      </trkpt>
      <trkpt lat="48.71035" lon="2.04126">
        <ele>151.1</ele>
        <time>2024-11-14T10:18:01Z</time>
      </trkpt>
      <trkpt lat="48.71028" lon="2.04135">
        <ele>152.2</ele>
        <time>2024-11-14T10:18:08Z</time>
      </trkpt>
      <trkpt lat="48.71019" lon="2.04138">
        <ele>150.9</ele>
        <time>2024-11-14T10:18:17Z</time>
      </trkpt>
      <trkpt lat="48.71013" lon="2.04149">
        <ele>150.7</ele>
        <time>2024-11-14T10:21:39Z</time>
      </trkpt>
      <trkpt lat="48.7102" lon="2.04142">
        <ele>151.6</ele>
        <time>2024-11-14T10:21:52Z</time>
      </trkpt>
      <trkpt lat="48.71027" lon="2.04133">
        <ele>151.8</ele>
        <time>2024-11-14T10:21:58Z</time>
      </trkpt>
      <trkpt lat="48.71035" lon="2.04125">
        <ele>150.9</ele>
        <time>2024-11-14T10:22:04Z</time>
      </trkpt>
      <trkpt lat="48.71044" lon="2.04119">
        <ele>150.4</ele>
        <time>2024-11-14T10:22:12Z</time>
      </trkpt>
      <trkpt lat="48.71034" lon="2.04117">
        <ele>149.5</ele>
        <time>2024-11-14T10:22:32Z</time>
      </trkpt>
      <trkpt lat="48.7103" lon="2.04104">
        <ele>146.2</ele>
        <time>2024-11-14T10:22:44Z</time>
      </trkpt>
      <trkpt lat="48.71021" lon="2.04102">
        <ele>144</ele>
        <time>2024-11-14T10:22:53Z</time>
      </trkpt>
      <trkpt lat="48.71021" lon="2.04088">
        <ele>140.1</ele>
        <time>2024-11-14T10:23:30Z</time>
      </trkpt>
      <trkpt lat="48.71015" lon="2.04078">
        <ele>136.2</ele>
        <time>2024-11-14T10:23:43Z</time>
      </trkpt>
      <trkpt lat="48.71013" lon="2.04064">
        <ele>131.7</ele>
        <time>2024-11-14T10:23:54Z</time>
      </trkpt>
      <trkpt lat="48.71012" lon="2.0405">
        <ele>127.7</ele>
        <time>2024-11-14T10:24:02Z</time>
      </trkpt>
      <trkpt lat="48.71009" lon="2.04036">
        <ele>124</ele>
        <time>2024-11-14T10:24:11Z</time>
      </trkpt>
      <trkpt lat="48.71005" lon="2.04023">
        <ele>120.6</ele>
        <time>2024-11-14T10:24:26Z</time>
      </trkpt>
      <trkpt lat="48.70996" lon="2.04028">
        <ele>120.1</ele>
        <time>2024-11-14T10:24:34Z</time>
      </trkpt>
      <trkpt lat="48.70989" lon="2.04037">
        <ele>120.2</ele>
        <time>2024-11-14T10:24:41Z</time>
      </trkpt>
      <trkpt lat="48.70983" lon="2.04048">
        <ele>121</ele>
        <time>2024-11-14T10:24:47Z</time>
      </trkpt>
      <trkpt lat="48.70977" lon="2.04059">
        <ele>121.9</ele>
        <time>2024-11-14T10:24:55Z</time>
      </trkpt>
      <trkpt lat="48.70986" lon="2.04056">
        <ele>123.7</ele>
        <time>2024-11-14T10:25:15Z</time>
      </trkpt>
      <trkpt lat="48.70993" lon="2.04045">
        <ele>122.8</ele>
        <time>2024-11-14T10:25:22Z</time>
      </trkpt>
      <trkpt lat="48.70999" lon="2.04035">
        <ele>122.4</ele>
        <time>2024-11-14T10:25:30Z</time>
      </trkpt>
      <trkpt lat="48.71001" lon="2.04021">
        <ele>119.7</ele>
        <time>2024-11-14T10:25:38Z</time>
      </trkpt>
      <trkpt lat="48.71" lon="2.04007">
        <ele>116.5</ele>
        <time>2024-11-14T10:25:44Z</time>
      </trkpt>
      <trkpt lat="48.71001" lon="2.03992">
        <ele>113.7</ele>
        <time>2024-11-14T10:25:50Z</time>
      </trkpt>
      <trkpt lat="48.71004" lon="2.03979">
        <ele>111.6</ele>
        <time>2024-11-14T10:25:59Z</time>
      </trkpt>
      <trkpt lat="48.71004" lon="2.03963">
        <ele>108.8</ele>
        <time>2024-11-14T10:26:06Z</time>
      </trkpt>
      <trkpt lat="48.71002" lon="2.03948">
        <ele>106.5</ele>
        <time>2024-11-14T10:26:13Z</time>
      </trkpt>
      <trkpt lat="48.70999" lon="2.03935">
        <ele>104.9</ele>
        <time>2024-11-14T10:26:21Z</time>
      </trkpt>
      <trkpt lat="48.70991" lon="2.03926">
        <ele>103.9</ele>
        <time>2024-11-14T10:26:29Z</time>
      </trkpt>
      <trkpt lat="48.70983" lon="2.03918">
        <ele>103.1</ele>
        <time>2024-11-14T10:26:37Z</time>
      </trkpt>
      <trkpt lat="48.70975" lon="2.0391">
        <ele>102.5</ele>
        <time>2024-11-14T10:26:47Z</time>
      </trkpt>
      <trkpt lat="48.70967" lon="2.03901">
        <ele>101.9</ele>
        <time>2024-11-14T10:26:53Z</time>
      </trkpt>
      <trkpt lat="48.70959" lon="2.03894">
        <ele>101.4</ele>
        <time>2024-11-14T10:26:59Z</time>
      </trkpt>
      <trkpt lat="48.70951" lon="2.03888">
        <ele>100.8</ele>
        <time>2024-11-14T10:27:05Z</time>
      </trkpt>
      <trkpt lat="48.70942" lon="2.03886">
        <ele>100.2</ele>
        <time>2024-11-14T10:27:12Z</time>
      </trkpt>
      <trkpt lat="48.70932" lon="2.03883">
        <ele>98.6</ele>
        <time>2024-11-14T10:27:19Z</time>
      </trkpt>
      <trkpt lat="48.70922" lon="2.03882">
        <ele>97.2</ele>
        <time>2024-11-14T10:27:26Z</time>
      </trkpt>
      <trkpt lat="48.70913" lon="2.03876">
        <ele>95.7</ele>
        <time>2024-11-14T10:27:33Z</time>
      </trkpt>
      <trkpt lat="48.70905" lon="2.0387">
        <ele>94.4</ele>
        <time>2024-11-14T10:27:40Z</time>
      </trkpt>
      <trkpt lat="48.70897" lon="2.03865">
        <ele>93.1</ele>
        <time>2024-11-14T10:27:48Z</time>
      </trkpt>
      <trkpt lat="48.70886" lon="2.03866">
        <ele>92.2</ele>
        <time>2024-11-14T10:27:57Z</time>
      </trkpt>
      <trkpt lat="48.70878" lon="2.03859">
        <ele>91.1</ele>
        <time>2024-11-14T10:28:11Z</time>
      </trkpt>
      <trkpt lat="48.70874" lon="2.03848">
        <ele>89.4</ele>
        <time>2024-11-14T10:28:25Z</time>
      </trkpt>
      <trkpt lat="48.7087" lon="2.03834">
        <ele>87.7</ele>
        <time>2024-11-14T10:28:30Z</time>
      </trkpt>
      <trkpt lat="48.70865" lon="2.03821">
        <ele>86.4</ele>
        <time>2024-11-14T10:28:37Z</time>
      </trkpt>
      <trkpt lat="48.7086" lon="2.0381">
        <ele>85.3</ele>
        <time>2024-11-14T10:28:44Z</time>
      </trkpt>
      <trkpt lat="48.70853" lon="2.03799">
        <ele>84.6</ele>
        <time>2024-11-14T10:28:53Z</time>
      </trkpt>
      <trkpt lat="48.70847" lon="2.03788">
        <ele>84.2</ele>
        <time>2024-11-14T10:29:01Z</time>
      </trkpt>
      <trkpt lat="48.70842" lon="2.03775">
        <ele>83.6</ele>
        <time>2024-11-14T10:29:09Z</time>
      </trkpt>
      <trkpt lat="48.70832" lon="2.03771">
        <ele>83</ele>
        <time>2024-11-14T10:29:17Z</time>
      </trkpt>
      <trkpt lat="48.70824" lon="2.03778">
        <ele>83</ele>
        <time>2024-11-14T10:29:23Z</time>
      </trkpt>
      <trkpt lat="48.70815" lon="2.03782">
        <ele>83.1</ele>
        <time>2024-11-14T10:29:29Z</time>
      </trkpt>
      <trkpt lat="48.70806" lon="2.03786">
        <ele>83</ele>
        <time>2024-11-14T10:29:36Z</time>
      </trkpt>
      <trkpt lat="48.70799" lon="2.03796">
        <ele>82.9</ele>
        <time>2024-11-14T10:29:43Z</time>
      </trkpt>
      <trkpt lat="48.70791" lon="2.03802">
        <ele>82.9</ele>
        <time>2024-11-14T10:29:50Z</time>
      </trkpt>
      <trkpt lat="48.70782" lon="2.03803">
        <ele>82.9</ele>
        <time>2024-11-14T10:29:58Z</time>
      </trkpt>
      <trkpt lat="48.70773" lon="2.03803">
        <ele>82.7</ele>
        <time>2024-11-14T10:30:05Z</time>
      </trkpt>
      <trkpt lat="48.70763" lon="2.03802">
        <ele>82.4</ele>
        <time>2024-11-14T10:30:13Z</time>
      </trkpt>
      <trkpt lat="48.70753" lon="2.038">
        <ele>82.1</ele>
        <time>2024-11-14T10:30:20Z</time>
      </trkpt>
      <trkpt lat="48.70749" lon="2.03813">
        <ele>82</ele>
        <time>2024-11-14T10:30:35Z</time>
      </trkpt>
      <trkpt lat="48.70747" lon="2.03828">
        <ele>81.9</ele>
        <time>2024-11-14T10:30:43Z</time>
      </trkpt>
      <trkpt lat="48.70746" lon="2.03842">
        <ele>81.8</ele>
        <time>2024-11-14T10:30:50Z</time>
      </trkpt>
      <trkpt lat="48.70745" lon="2.03857">
        <ele>81.8</ele>
        <time>2024-11-14T10:30:57Z</time>
      </trkpt>
      <trkpt lat="48.70744" lon="2.03871">
        <ele>82</ele>
        <time>2024-11-14T10:31:04Z</time>
      </trkpt>
      <trkpt lat="48.70741" lon="2.03884">
        <ele>82.3</ele>
        <time>2024-11-14T10:31:11Z</time>
      </trkpt>
      <trkpt lat="48.70741" lon="2.03899">
        <ele>82.5</ele>
        <time>2024-11-14T10:31:19Z</time>
      </trkpt>
      <trkpt lat="48.70735" lon="2.0391">
        <ele>82.3</ele>
        <time>2024-11-14T10:31:37Z</time>
      </trkpt>
      <trkpt lat="48.70739" lon="2.03922">
        <ele>82.6</ele>
        <time>2024-11-14T10:31:57Z</time>
      </trkpt>
      <trkpt lat="48.70745" lon="2.03933">
        <ele>82.8</ele>
        <time>2024-11-14T10:32:13Z</time>
      </trkpt>
      <trkpt lat="48.70742" lon="2.03948">
        <ele>82.7</ele>
        <time>2024-11-14T10:32:22Z</time>
      </trkpt>
      <trkpt lat="48.70733" lon="2.03956">
        <ele>82.3</ele>
        <time>2024-11-14T10:32:29Z</time>
      </trkpt>
      <trkpt lat="48.70724" lon="2.03964">
        <ele>81.4</ele>
        <time>2024-11-14T10:32:36Z</time>
      </trkpt>
      <trkpt lat="48.70715" lon="2.03969">
        <ele>80.8</ele>
        <time>2024-11-14T10:32:42Z</time>
      </trkpt>
      <trkpt lat="48.70705" lon="2.03972">
        <ele>80.4</ele>
        <time>2024-11-14T10:32:48Z</time>
      </trkpt>
      <trkpt lat="48.70695" lon="2.03975">
        <ele>80</ele>
        <time>2024-11-14T10:32:54Z</time>
      </trkpt>
      <trkpt lat="48.70686" lon="2.03977">
        <ele>79.4</ele>
        <time>2024-11-14T10:33:00Z</time>
      </trkpt>
      <trkpt lat="48.70676" lon="2.0398">
        <ele>78.9</ele>
        <time>2024-11-14T10:33:06Z</time>
      </trkpt>
      <trkpt lat="48.70667" lon="2.03982">
        <ele>78.4</ele>
        <time>2024-11-14T10:33:17Z</time>
      </trkpt>
      <trkpt lat="48.70665" lon="2.03995">
        <ele>78.8</ele>
        <time>2024-11-14T10:33:26Z</time>
      </trkpt>
      <trkpt lat="48.70667" lon="2.04009">
        <ele>79</ele>
        <time>2024-11-14T10:33:33Z</time>
      </trkpt>
      <trkpt lat="48.70673" lon="2.04021">
        <ele>79.2</ele>
        <time>2024-11-14T10:33:42Z</time>
      </trkpt>
      <trkpt lat="48.70676" lon="2.04036">
        <ele>79.3</ele>
        <time>2024-11-14T10:33:49Z</time>
      </trkpt>
      <trkpt lat="48.70681" lon="2.04048">
        <ele>79.5</ele>
        <time>2024-11-14T10:33:56Z</time>
      </trkpt>
      <trkpt lat="48.70682" lon="2.04062">
        <ele>79.5</ele>
        <time>2024-11-14T10:34:03Z</time>
      </trkpt>
      <trkpt lat="48.70685" lon="2.04076">
        <ele>79.7</ele>
        <time>2024-11-14T10:34:13Z</time>
      </trkpt>
      <trkpt lat="48.70684" lon="2.04089">
        <ele>79.5</ele>
        <time>2024-11-14T10:34:20Z</time>
      </trkpt>
      <trkpt lat="48.70682" lon="2.04103">
        <ele>79.2</ele>
        <time>2024-11-14T10:34:27Z</time>
      </trkpt>
      <trkpt lat="48.70681" lon="2.04118">
        <ele>79.2</ele>
        <time>2024-11-14T10:34:36Z</time>
      </trkpt>
      <trkpt lat="48.70682" lon="2.04132">
        <ele>79.4</ele>
        <time>2024-11-14T10:34:44Z</time>
      </trkpt>
      <trkpt lat="48.70673" lon="2.04138">
        <ele>79.2</ele>
        <time>2024-11-14T10:34:50Z</time>
      </trkpt>
      <trkpt lat="48.70663" lon="2.04135">
        <ele>78.7</ele>
        <time>2024-11-14T10:34:58Z</time>
      </trkpt>
      <trkpt lat="48.70655" lon="2.04143">
        <ele>78.5</ele>
        <time>2024-11-14T10:40:56Z</time>
      </trkpt>
      <trkpt lat="48.70664" lon="2.04149">
        <ele>78.6</ele>
        <time>2024-11-14T10:42:41Z</time>
      </trkpt>
      <trkpt lat="48.70673" lon="2.04149">
        <ele>79</ele>
        <time>2024-11-14T10:42:48Z</time>
      </trkpt>
    </trkseg>
  </trk>
</gpx>